<?xml version='1.0' encoding='UTF-8'?>
<gpx version="1.1" creator="https://www.komoot.de" xmlns="http://www.topografix.com/GPX/1/1" xmlns:xsi="http://www.w3.org/2001/XMLSchema-instance" xsi:schemaLocation="http://www.topografix.com/GPX/1/1 http://www.topografix.com/GPX/1/1/gpx.xsd">
  <metadata>
    <name>Wanderung 08.04.2020 Nach Essen Karnap</name>
    <author>
      <link href="https://www.komoot.de">
        <text>komoot</text>
        <type>text/html</type>
      </link>
    </author>
  </metadata>
  <trk>
    <name>Wanderung 08.04.2020 Nach Essen Karnap</name>
    <trkseg>
      <trkpt lat="51.548244" lon="6.991025">
        <ele>79.328884</ele>
        <time>2020-04-08T08:36:09.240Z</time>
      </trkpt>
      <trkpt lat="51.548200" lon="6.990839">
        <ele>79.328884</ele>
        <time>2020-04-08T08:36:16.123Z</time>
      </trkpt>
      <trkpt lat="51.548122" lon="6.990746">
        <ele>79.328884</ele>
        <time>2020-04-08T08:36:25.494Z</time>
      </trkpt>
      <trkpt lat="51.548065" lon="6.990624">
        <ele>79.328884</ele>
        <time>2020-04-08T08:36:32.481Z</time>
      </trkpt>
      <trkpt lat="51.548010" lon="6.990498">
        <ele>79.328884</ele>
        <time>2020-04-08T08:36:40.496Z</time>
      </trkpt>
      <trkpt lat="51.547960" lon="6.990362">
        <ele>79.328884</ele>
        <time>2020-04-08T08:36:47.481Z</time>
      </trkpt>
      <trkpt lat="51.547874" lon="6.990289">
        <ele>79.328884</ele>
        <time>2020-04-08T08:36:54.522Z</time>
      </trkpt>
      <trkpt lat="51.547874" lon="6.990102">
        <ele>79.328884</ele>
        <time>2020-04-08T08:37:01.499Z</time>
      </trkpt>
      <trkpt lat="51.547775" lon="6.990081">
        <ele>79.328884</ele>
        <time>2020-04-08T08:37:11.484Z</time>
      </trkpt>
      <trkpt lat="51.547695" lon="6.990012">
        <ele>79.337768</ele>
        <time>2020-04-08T08:37:18.500Z</time>
      </trkpt>
      <trkpt lat="51.547657" lon="6.989871">
        <ele>79.396018</ele>
        <time>2020-04-08T08:37:24.503Z</time>
      </trkpt>
      <trkpt lat="51.547596" lon="6.989766">
        <ele>79.450484</ele>
        <time>2020-04-08T08:37:30.492Z</time>
      </trkpt>
      <trkpt lat="51.547523" lon="6.989638">
        <ele>79.516318</ele>
        <time>2020-04-08T08:37:38.501Z</time>
      </trkpt>
      <trkpt lat="51.547450" lon="6.989539">
        <ele>79.574526</ele>
        <time>2020-04-08T08:37:44.500Z</time>
      </trkpt>
      <trkpt lat="51.547356" lon="6.989469">
        <ele>79.637669</ele>
        <time>2020-04-08T08:37:52.498Z</time>
      </trkpt>
      <trkpt lat="51.547314" lon="6.989321">
        <ele>79.699334</ele>
        <time>2020-04-08T08:37:58.506Z</time>
      </trkpt>
      <trkpt lat="51.547240" lon="6.989221">
        <ele>79.758253</ele>
        <time>2020-04-08T08:38:05.504Z</time>
      </trkpt>
      <trkpt lat="51.547157" lon="6.989163">
        <ele>79.813416</ele>
        <time>2020-04-08T08:38:14.499Z</time>
      </trkpt>
      <trkpt lat="51.547108" lon="6.989019">
        <ele>79.875637</ele>
        <time>2020-04-08T08:38:23.483Z</time>
      </trkpt>
      <trkpt lat="51.547043" lon="6.988914">
        <ele>79.931797</ele>
        <time>2020-04-08T08:38:29.481Z</time>
      </trkpt>
      <trkpt lat="51.546986" lon="6.988778">
        <ele>79.993964</ele>
        <time>2020-04-08T08:38:36.528Z</time>
      </trkpt>
      <trkpt lat="51.546906" lon="6.988673">
        <ele>80.056909</ele>
        <time>2020-04-08T08:38:44.496Z</time>
      </trkpt>
      <trkpt lat="51.546840" lon="6.988552">
        <ele>80.117918</ele>
        <time>2020-04-08T08:38:52.497Z</time>
      </trkpt>
      <trkpt lat="51.546783" lon="6.988440">
        <ele>80.172778</ele>
        <time>2020-04-08T08:39:00.501Z</time>
      </trkpt>
      <trkpt lat="51.546710" lon="6.988325">
        <ele>80.235069</ele>
        <time>2020-04-08T08:39:09.500Z</time>
      </trkpt>
      <trkpt lat="51.546635" lon="6.988239">
        <ele>80.291218</ele>
        <time>2020-04-08T08:39:33.492Z</time>
      </trkpt>
      <trkpt lat="51.546580" lon="6.988118">
        <ele>80.348030</ele>
        <time>2020-04-08T08:39:37.497Z</time>
      </trkpt>
      <trkpt lat="51.546535" lon="6.987986">
        <ele>80.405092</ele>
        <time>2020-04-08T08:39:42.497Z</time>
      </trkpt>
      <trkpt lat="51.546444" lon="6.987904">
        <ele>81.031434</ele>
        <time>2020-04-08T08:39:48.492Z</time>
      </trkpt>
      <trkpt lat="51.546364" lon="6.987805">
        <ele>81.890129</ele>
        <time>2020-04-08T08:39:55.498Z</time>
      </trkpt>
      <trkpt lat="51.546330" lon="6.987661">
        <ele>82.704937</ele>
        <time>2020-04-08T08:40:00.496Z</time>
      </trkpt>
      <trkpt lat="51.546240" lon="6.987590">
        <ele>83.557677</ele>
        <time>2020-04-08T08:40:09.495Z</time>
      </trkpt>
      <trkpt lat="51.546165" lon="6.987498">
        <ele>84.360091</ele>
        <time>2020-04-08T08:40:17.498Z</time>
      </trkpt>
      <trkpt lat="51.546104" lon="6.987382">
        <ele>85.163704</ele>
        <time>2020-04-08T08:40:23.503Z</time>
      </trkpt>
      <trkpt lat="51.546024" lon="6.987307">
        <ele>85.951423</ele>
        <time>2020-04-08T08:40:32.505Z</time>
      </trkpt>
      <trkpt lat="51.545960" lon="6.987201">
        <ele>86.732964</ele>
        <time>2020-04-08T08:40:37.496Z</time>
      </trkpt>
      <trkpt lat="51.545860" lon="6.987130">
        <ele>87.662829</ele>
        <time>2020-04-08T08:40:43.502Z</time>
      </trkpt>
      <trkpt lat="51.545776" lon="6.987063">
        <ele>88.460438</ele>
        <time>2020-04-08T08:40:50.502Z</time>
      </trkpt>
      <trkpt lat="51.545685" lon="6.987040">
        <ele>89.244020</ele>
        <time>2020-04-08T08:40:56.512Z</time>
      </trkpt>
      <trkpt lat="51.545624" lon="6.986922">
        <ele>90.055746</ele>
        <time>2020-04-08T08:41:05.498Z</time>
      </trkpt>
      <trkpt lat="51.545547" lon="6.986785">
        <ele>91.032604</ele>
        <time>2020-04-08T08:41:11.497Z</time>
      </trkpt>
      <trkpt lat="51.545460" lon="6.986693">
        <ele>91.918346</ele>
        <time>2020-04-08T08:41:23.503Z</time>
      </trkpt>
      <trkpt lat="51.545376" lon="6.986620">
        <ele>92.730558</ele>
        <time>2020-04-08T08:41:29.504Z</time>
      </trkpt>
      <trkpt lat="51.545280" lon="6.986547">
        <ele>93.633876</ele>
        <time>2020-04-08T08:41:34.502Z</time>
      </trkpt>
      <trkpt lat="51.545190" lon="6.986448">
        <ele>94.561443</ele>
        <time>2020-04-08T08:41:40.524Z</time>
      </trkpt>
      <trkpt lat="51.544895" lon="6.986428">
        <ele>95.897405</ele>
        <time>2020-04-08T08:42:38.509Z</time>
      </trkpt>
      <trkpt lat="51.544785" lon="6.986427">
        <ele>96.016993</ele>
        <time>2020-04-08T08:42:46.500Z</time>
      </trkpt>
      <trkpt lat="51.544693" lon="6.986464">
        <ele>96.120091</ele>
        <time>2020-04-08T08:42:53.496Z</time>
      </trkpt>
      <trkpt lat="51.544580" lon="6.986425">
        <ele>96.245737</ele>
        <time>2020-04-08T08:42:59.495Z</time>
      </trkpt>
      <trkpt lat="51.544480" lon="6.986439">
        <ele>96.354863</ele>
        <time>2020-04-08T08:43:07.500Z</time>
      </trkpt>
      <trkpt lat="51.544388" lon="6.986502">
        <ele>96.463572</ele>
        <time>2020-04-08T08:43:13.498Z</time>
      </trkpt>
      <trkpt lat="51.544280" lon="6.986572">
        <ele>96.590164</ele>
        <time>2020-04-08T08:43:23.499Z</time>
      </trkpt>
      <trkpt lat="51.544200" lon="6.986649">
        <ele>96.691526</ele>
        <time>2020-04-08T08:43:31.504Z</time>
      </trkpt>
      <trkpt lat="51.544125" lon="6.986756">
        <ele>96.800529</ele>
        <time>2020-04-08T08:43:36.504Z</time>
      </trkpt>
      <trkpt lat="51.544056" lon="6.986857">
        <ele>96.901970</ele>
        <time>2020-04-08T08:43:43.505Z</time>
      </trkpt>
      <trkpt lat="51.544010" lon="6.986993">
        <ele>97.006640</ele>
        <time>2020-04-08T08:43:51.509Z</time>
      </trkpt>
      <trkpt lat="51.543950" lon="6.987130">
        <ele>97.119930</ele>
        <time>2020-04-08T08:43:58.499Z</time>
      </trkpt>
      <trkpt lat="51.543890" lon="6.987243">
        <ele>97.220388</ele>
        <time>2020-04-08T08:44:04.504Z</time>
      </trkpt>
      <trkpt lat="51.543830" lon="6.987365">
        <ele>97.325548</ele>
        <time>2020-04-08T08:44:10.503Z</time>
      </trkpt>
      <trkpt lat="51.543800" lon="6.987524">
        <ele>97.437889</ele>
        <time>2020-04-08T08:44:17.496Z</time>
      </trkpt>
      <trkpt lat="51.543728" lon="6.987650">
        <ele>97.553579</ele>
        <time>2020-04-08T08:44:24.495Z</time>
      </trkpt>
      <trkpt lat="51.543670" lon="6.987801">
        <ele>97.673575</ele>
        <time>2020-04-08T08:44:34.503Z</time>
      </trkpt>
      <trkpt lat="51.543630" lon="6.987943">
        <ele>97.312513</ele>
        <time>2020-04-08T08:44:42.500Z</time>
      </trkpt>
      <trkpt lat="51.543587" lon="6.988078">
        <ele>96.929165</ele>
        <time>2020-04-08T08:44:49.503Z</time>
      </trkpt>
      <trkpt lat="51.543530" lon="6.988210">
        <ele>96.523012</ele>
        <time>2020-04-08T08:44:56.502Z</time>
      </trkpt>
      <trkpt lat="51.543472" lon="6.988319">
        <ele>96.160449</ele>
        <time>2020-04-08T08:45:03.500Z</time>
      </trkpt>
      <trkpt lat="51.543423" lon="6.988446">
        <ele>95.782714</ele>
        <time>2020-04-08T08:45:10.502Z</time>
      </trkpt>
      <trkpt lat="51.543354" lon="6.988547">
        <ele>95.403514</ele>
        <time>2020-04-08T08:45:16.505Z</time>
      </trkpt>
      <trkpt lat="51.543278" lon="6.988667">
        <ele>94.970641</ele>
        <time>2020-04-08T08:45:26.500Z</time>
      </trkpt>
      <trkpt lat="51.543250" lon="6.988808">
        <ele>94.596546</ele>
        <time>2020-04-08T08:45:31.497Z</time>
      </trkpt>
      <trkpt lat="51.543180" lon="6.988907">
        <ele>94.217688</ele>
        <time>2020-04-08T08:45:38.495Z</time>
      </trkpt>
      <trkpt lat="51.543170" lon="6.989057">
        <ele>93.836399</ele>
        <time>2020-04-08T08:45:44.499Z</time>
      </trkpt>
      <trkpt lat="51.543118" lon="6.989190">
        <ele>93.439342</ele>
        <time>2020-04-08T08:45:52.507Z</time>
      </trkpt>
      <trkpt lat="51.543050" lon="6.989329">
        <ele>92.992364</ele>
        <time>2020-04-08T08:45:58.503Z</time>
      </trkpt>
      <trkpt lat="51.543015" lon="6.989475">
        <ele>92.596892</ele>
        <time>2020-04-08T08:46:04.502Z</time>
      </trkpt>
      <trkpt lat="51.542953" lon="6.989615">
        <ele>92.162507</ele>
        <time>2020-04-08T08:46:12.503Z</time>
      </trkpt>
      <trkpt lat="51.542890" lon="6.989725">
        <ele>91.784559</ele>
        <time>2020-04-08T08:46:18.503Z</time>
      </trkpt>
      <trkpt lat="51.542840" lon="6.989853">
        <ele>91.402525</ele>
        <time>2020-04-08T08:46:24.506Z</time>
      </trkpt>
      <trkpt lat="51.542816" lon="6.989997">
        <ele>91.025728</ele>
        <time>2020-04-08T08:46:32.505Z</time>
      </trkpt>
      <trkpt lat="51.542774" lon="6.990147">
        <ele>90.609957</ele>
        <time>2020-04-08T08:46:40.498Z</time>
      </trkpt>
      <trkpt lat="51.542700" lon="6.990276">
        <ele>90.434063</ele>
        <time>2020-04-08T08:46:46.537Z</time>
      </trkpt>
      <trkpt lat="51.542660" lon="6.990416">
        <ele>90.554070</ele>
        <time>2020-04-08T08:46:52.502Z</time>
      </trkpt>
      <trkpt lat="51.542590" lon="6.990542">
        <ele>90.685670</ele>
        <time>2020-04-08T08:46:59.503Z</time>
      </trkpt>
      <trkpt lat="51.542538" lon="6.990679">
        <ele>90.810687</ele>
        <time>2020-04-08T08:47:08.502Z</time>
      </trkpt>
      <trkpt lat="51.542500" lon="6.990816">
        <ele>90.927533</ele>
        <time>2020-04-08T08:47:16.496Z</time>
      </trkpt>
      <trkpt lat="51.542427" lon="6.990925">
        <ele>91.052303</ele>
        <time>2020-04-08T08:47:23.502Z</time>
      </trkpt>
      <trkpt lat="51.542400" lon="6.991075">
        <ele>91.173938</ele>
        <time>2020-04-08T08:47:30.503Z</time>
      </trkpt>
      <trkpt lat="51.542360" lon="6.991225">
        <ele>91.301066</ele>
        <time>2020-04-08T08:47:36.499Z</time>
      </trkpt>
      <trkpt lat="51.542316" lon="6.991367">
        <ele>91.424642</ele>
        <time>2020-04-08T08:47:43.502Z</time>
      </trkpt>
      <trkpt lat="51.542313" lon="6.991534">
        <ele>91.554778</ele>
        <time>2020-04-08T08:47:51.498Z</time>
      </trkpt>
      <trkpt lat="51.542313" lon="6.991679">
        <ele>91.667724</ele>
        <time>2020-04-08T08:48:04.485Z</time>
      </trkpt>
      <trkpt lat="51.542328" lon="6.991851">
        <ele>91.803012</ele>
        <time>2020-04-08T08:48:10.500Z</time>
      </trkpt>
      <trkpt lat="51.542328" lon="6.992003">
        <ele>91.921410</ele>
        <time>2020-04-08T08:48:14.510Z</time>
      </trkpt>
      <trkpt lat="51.542255" lon="6.992101">
        <ele>92.040516</ele>
        <time>2020-04-08T08:48:22.498Z</time>
      </trkpt>
      <trkpt lat="51.542168" lon="6.992151">
        <ele>92.156229</ele>
        <time>2020-04-08T08:48:28.505Z</time>
      </trkpt>
      <trkpt lat="51.542095" lon="6.992240">
        <ele>92.270968</ele>
        <time>2020-04-08T08:48:37.496Z</time>
      </trkpt>
      <trkpt lat="51.542004" lon="6.992276">
        <ele>92.388339</ele>
        <time>2020-04-08T08:48:44.499Z</time>
      </trkpt>
      <trkpt lat="51.541920" lon="6.992356">
        <ele>92.510614</ele>
        <time>2020-04-08T08:48:49.493Z</time>
      </trkpt>
      <trkpt lat="51.541836" lon="6.992417">
        <ele>92.621649</ele>
        <time>2020-04-08T08:48:57.501Z</time>
      </trkpt>
      <trkpt lat="51.541740" lon="6.992468">
        <ele>92.512028</ele>
        <time>2020-04-08T08:49:05.503Z</time>
      </trkpt>
      <trkpt lat="51.541670" lon="6.992569">
        <ele>92.410053</ele>
        <time>2020-04-08T08:49:16.504Z</time>
      </trkpt>
      <trkpt lat="51.541595" lon="6.992694">
        <ele>92.292930</ele>
        <time>2020-04-08T08:49:24.499Z</time>
      </trkpt>
      <trkpt lat="51.541515" lon="6.992794">
        <ele>92.183063</ele>
        <time>2020-04-08T08:49:32.502Z</time>
      </trkpt>
      <trkpt lat="51.541412" lon="6.992871">
        <ele>92.059905</ele>
        <time>2020-04-08T08:49:38.501Z</time>
      </trkpt>
      <trkpt lat="51.541332" lon="6.992968">
        <ele>91.951267</ele>
        <time>2020-04-08T08:49:46.500Z</time>
      </trkpt>
      <trkpt lat="51.541260" lon="6.993062">
        <ele>91.850708</ele>
        <time>2020-04-08T08:49:52.492Z</time>
      </trkpt>
      <trkpt lat="51.541187" lon="6.993155">
        <ele>91.749725</ele>
        <time>2020-04-08T08:49:58.501Z</time>
      </trkpt>
      <trkpt lat="51.541130" lon="6.993287">
        <ele>91.641361</ele>
        <time>2020-04-08T08:50:04.504Z</time>
      </trkpt>
      <trkpt lat="51.541073" lon="6.993408">
        <ele>91.539002</ele>
        <time>2020-04-08T08:50:10.503Z</time>
      </trkpt>
      <trkpt lat="51.540993" lon="6.993504">
        <ele>91.430769</ele>
        <time>2020-04-08T08:50:16.496Z</time>
      </trkpt>
      <trkpt lat="51.540936" lon="6.993654">
        <ele>91.312231</ele>
        <time>2020-04-08T08:50:23.497Z</time>
      </trkpt>
      <trkpt lat="51.540894" lon="6.993790">
        <ele>91.209837</ele>
        <time>2020-04-08T08:50:30.496Z</time>
      </trkpt>
      <trkpt lat="51.540844" lon="6.993919">
        <ele>91.107336</ele>
        <time>2020-04-08T08:50:37.497Z</time>
      </trkpt>
      <trkpt lat="51.540775" lon="6.994036">
        <ele>90.998608</ele>
        <time>2020-04-08T08:50:43.504Z</time>
      </trkpt>
      <trkpt lat="51.540750" lon="6.994189">
        <ele>90.891931</ele>
        <time>2020-04-08T08:50:51.503Z</time>
      </trkpt>
      <trkpt lat="51.540714" lon="6.994342">
        <ele>90.781620</ele>
        <time>2020-04-08T08:50:59.501Z</time>
      </trkpt>
      <trkpt lat="51.540684" lon="6.994493">
        <ele>90.674724</ele>
        <time>2020-04-08T08:51:08.505Z</time>
      </trkpt>
      <trkpt lat="51.540710" lon="6.994636">
        <ele>91.021258</ele>
        <time>2020-04-08T08:51:13.482Z</time>
      </trkpt>
      <trkpt lat="51.540680" lon="6.994777">
        <ele>91.373214</ele>
        <time>2020-04-08T08:51:18.481Z</time>
      </trkpt>
      <trkpt lat="51.540630" lon="6.994899">
        <ele>91.718283</ele>
        <time>2020-04-08T08:51:27.481Z</time>
      </trkpt>
      <trkpt lat="51.540550" lon="6.994968">
        <ele>92.063018</ele>
        <time>2020-04-08T08:51:35.490Z</time>
      </trkpt>
      <trkpt lat="51.540516" lon="6.995132">
        <ele>92.471302</ele>
        <time>2020-04-08T08:51:43.498Z</time>
      </trkpt>
      <trkpt lat="51.540462" lon="6.995260">
        <ele>92.836594</ele>
        <time>2020-04-08T08:51:49.499Z</time>
      </trkpt>
      <trkpt lat="51.540382" lon="6.995358">
        <ele>93.218507</ele>
        <time>2020-04-08T08:51:55.501Z</time>
      </trkpt>
      <trkpt lat="51.540344" lon="6.995496">
        <ele>93.574949</ele>
        <time>2020-04-08T08:52:02.496Z</time>
      </trkpt>
      <trkpt lat="51.540283" lon="6.995637">
        <ele>93.980601</ele>
        <time>2020-04-08T08:52:09.504Z</time>
      </trkpt>
      <trkpt lat="51.540268" lon="6.995795">
        <ele>94.358087</ele>
        <time>2020-04-08T08:52:14.501Z</time>
      </trkpt>
      <trkpt lat="51.540222" lon="6.995928">
        <ele>94.717507</ele>
        <time>2020-04-08T08:52:24.504Z</time>
      </trkpt>
      <trkpt lat="51.540160" lon="6.996044">
        <ele>95.078739</ele>
        <time>2020-04-08T08:52:32.502Z</time>
      </trkpt>
      <trkpt lat="51.540085" lon="6.996162">
        <ele>95.477211</ele>
        <time>2020-04-08T08:52:39.499Z</time>
      </trkpt>
      <trkpt lat="51.540012" lon="6.996281">
        <ele>95.871970</ele>
        <time>2020-04-08T08:52:44.504Z</time>
      </trkpt>
      <trkpt lat="51.539950" lon="6.996394">
        <ele>96.227859</ele>
        <time>2020-04-08T08:52:53.502Z</time>
      </trkpt>
      <trkpt lat="51.539906" lon="6.996535">
        <ele>96.600439</ele>
        <time>2020-04-08T08:53:00.503Z</time>
      </trkpt>
      <trkpt lat="51.539840" lon="6.996658">
        <ele>96.984112</ele>
        <time>2020-04-08T08:53:08.497Z</time>
      </trkpt>
      <trkpt lat="51.539770" lon="6.996810">
        <ele>97.430805</ele>
        <time>2020-04-08T08:53:14.503Z</time>
      </trkpt>
      <trkpt lat="51.539710" lon="6.996927">
        <ele>97.466193</ele>
        <time>2020-04-08T08:53:22.502Z</time>
      </trkpt>
      <trkpt lat="51.539646" lon="6.997041">
        <ele>97.418696</ele>
        <time>2020-04-08T08:53:31.502Z</time>
      </trkpt>
      <trkpt lat="51.539585" lon="6.997172">
        <ele>97.368083</ele>
        <time>2020-04-08T08:53:35.509Z</time>
      </trkpt>
      <trkpt lat="51.539494" lon="6.997256">
        <ele>97.315905</ele>
        <time>2020-04-08T08:53:46.503Z</time>
      </trkpt>
      <trkpt lat="51.539444" lon="6.997381">
        <ele>97.269940</ele>
        <time>2020-04-08T08:53:52.485Z</time>
      </trkpt>
      <trkpt lat="51.539350" lon="6.997452">
        <ele>97.218296</ele>
        <time>2020-04-08T08:54:02.495Z</time>
      </trkpt>
      <trkpt lat="51.539276" lon="6.997560">
        <ele>97.168599</ele>
        <time>2020-04-08T08:54:13.502Z</time>
      </trkpt>
      <trkpt lat="51.539192" lon="6.997623">
        <ele>97.122508</ele>
        <time>2020-04-08T08:54:19.503Z</time>
      </trkpt>
      <trkpt lat="51.539100" lon="6.997604">
        <ele>97.076384</ele>
        <time>2020-04-08T08:54:25.502Z</time>
      </trkpt>
      <trkpt lat="51.539013" lon="6.997693">
        <ele>97.025107</ele>
        <time>2020-04-08T08:54:33.502Z</time>
      </trkpt>
      <trkpt lat="51.538887" lon="6.997660">
        <ele>96.961626</ele>
        <time>2020-04-08T08:54:38.498Z</time>
      </trkpt>
      <trkpt lat="51.538790" lon="6.997699">
        <ele>96.911906</ele>
        <time>2020-04-08T08:54:45.502Z</time>
      </trkpt>
      <trkpt lat="51.538720" lon="6.997794">
        <ele>96.866355</ele>
        <time>2020-04-08T08:54:53.505Z</time>
      </trkpt>
      <trkpt lat="51.538654" lon="6.997930">
        <ele>96.813003</ele>
        <time>2020-04-08T08:55:00.483Z</time>
      </trkpt>
      <trkpt lat="51.538555" lon="6.997904">
        <ele>96.763122</ele>
        <time>2020-04-08T08:55:04.481Z</time>
      </trkpt>
      <trkpt lat="51.538480" lon="6.998009">
        <ele>96.713669</ele>
        <time>2020-04-08T08:55:18.497Z</time>
      </trkpt>
      <trkpt lat="51.538383" lon="6.998045">
        <ele>96.664166</ele>
        <time>2020-04-08T08:55:28.500Z</time>
      </trkpt>
      <trkpt lat="51.538296" lon="6.998114">
        <ele>96.615927</ele>
        <time>2020-04-08T08:55:35.498Z</time>
      </trkpt>
      <trkpt lat="51.538197" lon="6.998115">
        <ele>96.144451</ele>
        <time>2020-04-08T08:55:42.498Z</time>
      </trkpt>
      <trkpt lat="51.538105" lon="6.998086">
        <ele>95.634353</ele>
        <time>2020-04-08T08:55:47.499Z</time>
      </trkpt>
      <trkpt lat="51.538006" lon="6.998098">
        <ele>95.094170</ele>
        <time>2020-04-08T08:55:54.508Z</time>
      </trkpt>
      <trkpt lat="51.537918" lon="6.998137">
        <ele>94.597508</ele>
        <time>2020-04-08T08:56:00.507Z</time>
      </trkpt>
      <trkpt lat="51.537820" lon="6.998163">
        <ele>94.057084</ele>
        <time>2020-04-08T08:56:04.505Z</time>
      </trkpt>
      <trkpt lat="51.537716" lon="6.998147">
        <ele>93.488640</ele>
        <time>2020-04-08T08:56:08.503Z</time>
      </trkpt>
      <trkpt lat="51.537624" lon="6.998196">
        <ele>92.961319</ele>
        <time>2020-04-08T08:56:15.507Z</time>
      </trkpt>
      <trkpt lat="51.537525" lon="6.998178">
        <ele>92.419232</ele>
        <time>2020-04-08T08:56:21.505Z</time>
      </trkpt>
      <trkpt lat="51.537434" lon="6.998160">
        <ele>91.920372</ele>
        <time>2020-04-08T08:56:31.501Z</time>
      </trkpt>
      <trkpt lat="51.537323" lon="6.998158">
        <ele>91.316389</ele>
        <time>2020-04-08T08:56:38.498Z</time>
      </trkpt>
      <trkpt lat="51.537220" lon="6.998164">
        <ele>90.755603</ele>
        <time>2020-04-08T08:56:46.503Z</time>
      </trkpt>
      <trkpt lat="51.537113" lon="6.998174">
        <ele>90.172439</ele>
        <time>2020-04-08T08:56:53.502Z</time>
      </trkpt>
      <trkpt lat="51.537006" lon="6.998213">
        <ele>89.575483</ele>
        <time>2020-04-08T08:57:03.503Z</time>
      </trkpt>
      <trkpt lat="51.536900" lon="6.998193">
        <ele>88.994784</ele>
        <time>2020-04-08T08:57:10.502Z</time>
      </trkpt>
      <trkpt lat="51.536810" lon="6.998147">
        <ele>88.480947</ele>
        <time>2020-04-08T08:57:16.503Z</time>
      </trkpt>
      <trkpt lat="51.536743" lon="6.998031">
        <ele>87.945211</ele>
        <time>2020-04-08T08:57:23.506Z</time>
      </trkpt>
      <trkpt lat="51.536705" lon="6.997867">
        <ele>87.352920</ele>
        <time>2020-04-08T08:57:32.497Z</time>
      </trkpt>
      <trkpt lat="51.536655" lon="6.997743">
        <ele>86.852797</ele>
        <time>2020-04-08T08:57:39.502Z</time>
      </trkpt>
      <trkpt lat="51.536720" lon="6.997636">
        <ele>87.050434</ele>
        <time>2020-04-08T08:57:47.502Z</time>
      </trkpt>
      <trkpt lat="51.536550" lon="6.997385">
        <ele>87.650625</ele>
        <time>2020-04-08T08:58:37.507Z</time>
      </trkpt>
      <trkpt lat="51.536495" lon="6.997267">
        <ele>87.889122</ele>
        <time>2020-04-08T08:58:44.511Z</time>
      </trkpt>
      <trkpt lat="51.536446" lon="6.997122">
        <ele>88.156027</ele>
        <time>2020-04-08T08:58:51.503Z</time>
      </trkpt>
      <trkpt lat="51.536407" lon="6.996960">
        <ele>88.436994</ele>
        <time>2020-04-08T08:58:58.508Z</time>
      </trkpt>
      <trkpt lat="51.536360" lon="6.996823">
        <ele>88.690052</ele>
        <time>2020-04-08T08:59:11.497Z</time>
      </trkpt>
      <trkpt lat="51.536396" lon="6.996666">
        <ele>88.960696</ele>
        <time>2020-04-08T08:59:20.506Z</time>
      </trkpt>
      <trkpt lat="51.536300" lon="6.996537">
        <ele>89.286043</ele>
        <time>2020-04-08T08:59:26.502Z</time>
      </trkpt>
      <trkpt lat="51.536260" lon="6.996397">
        <ele>89.535232</ele>
        <time>2020-04-08T08:59:33.505Z</time>
      </trkpt>
      <trkpt lat="51.536200" lon="6.996255">
        <ele>89.812890</ele>
        <time>2020-04-08T08:59:41.504Z</time>
      </trkpt>
      <trkpt lat="51.536150" lon="6.996132">
        <ele>90.050553</ele>
        <time>2020-04-08T08:59:48.502Z</time>
      </trkpt>
      <trkpt lat="51.536125" lon="6.995981">
        <ele>90.303293</ele>
        <time>2020-04-08T08:59:56.502Z</time>
      </trkpt>
      <trkpt lat="51.536083" lon="6.995834">
        <ele>90.564942</ele>
        <time>2020-04-08T09:00:04.499Z</time>
      </trkpt>
      <trkpt lat="51.536053" lon="6.995696">
        <ele>90.801390</ele>
        <time>2020-04-08T09:00:11.498Z</time>
      </trkpt>
      <trkpt lat="51.536026" lon="6.995533">
        <ele>91.074224</ele>
        <time>2020-04-08T09:00:17.497Z</time>
      </trkpt>
      <trkpt lat="51.535980" lon="6.995369">
        <ele>91.365209</ele>
        <time>2020-04-08T09:00:26.497Z</time>
      </trkpt>
      <trkpt lat="51.535830" lon="6.995399">
        <ele>91.528943</ele>
        <time>2020-04-08T09:01:00.487Z</time>
      </trkpt>
      <trkpt lat="51.535720" lon="6.995417">
        <ele>91.561271</ele>
        <time>2020-04-08T09:01:03.487Z</time>
      </trkpt>
      <trkpt lat="51.535656" lon="6.995519">
        <ele>91.587620</ele>
        <time>2020-04-08T09:01:08.502Z</time>
      </trkpt>
      <trkpt lat="51.535570" lon="6.995580">
        <ele>91.615103</ele>
        <time>2020-04-08T09:01:13.496Z</time>
      </trkpt>
      <trkpt lat="51.535480" lon="6.995640">
        <ele>91.643590</ele>
        <time>2020-04-08T09:01:19.499Z</time>
      </trkpt>
      <trkpt lat="51.535378" lon="6.995699">
        <ele>91.675285</ele>
        <time>2020-04-08T09:01:26.510Z</time>
      </trkpt>
      <trkpt lat="51.535103" lon="6.995865">
        <ele>91.761171</ele>
        <time>2020-04-08T09:02:53.533Z</time>
      </trkpt>
      <trkpt lat="51.535000" lon="6.995900">
        <ele>91.791952</ele>
        <time>2020-04-08T09:02:58.504Z</time>
      </trkpt>
      <trkpt lat="51.534910" lon="6.995939">
        <ele>91.819205</ele>
        <time>2020-04-08T09:03:05.499Z</time>
      </trkpt>
      <trkpt lat="51.534817" lon="6.996004">
        <ele>91.848855</ele>
        <time>2020-04-08T09:03:10.499Z</time>
      </trkpt>
      <trkpt lat="51.534718" lon="6.996007">
        <ele>91.877806</ele>
        <time>2020-04-08T09:03:19.498Z</time>
      </trkpt>
      <trkpt lat="51.534620" lon="6.996038">
        <ele>91.907009</ele>
        <time>2020-04-08T09:03:26.496Z</time>
      </trkpt>
      <trkpt lat="51.534510" lon="6.996086">
        <ele>91.940335</ele>
        <time>2020-04-08T09:03:32.496Z</time>
      </trkpt>
      <trkpt lat="51.534424" lon="6.996131">
        <ele>91.966778</ele>
        <time>2020-04-08T09:03:37.482Z</time>
      </trkpt>
      <trkpt lat="51.534330" lon="6.996152">
        <ele>91.994526</ele>
        <time>2020-04-08T09:03:46.500Z</time>
      </trkpt>
      <trkpt lat="51.534237" lon="6.996143">
        <ele>92.021766</ele>
        <time>2020-04-08T09:03:51.500Z</time>
      </trkpt>
      <trkpt lat="51.534157" lon="6.996065">
        <ele>91.758513</ele>
        <time>2020-04-08T09:03:55.501Z</time>
      </trkpt>
      <trkpt lat="51.534050" lon="6.996009">
        <ele>91.381797</ele>
        <time>2020-04-08T09:04:14.498Z</time>
      </trkpt>
      <trkpt lat="51.534030" lon="6.995842">
        <ele>91.027637</ele>
        <time>2020-04-08T09:04:19.497Z</time>
      </trkpt>
      <trkpt lat="51.534080" lon="6.995556">
        <ele>90.408975</ele>
        <time>2020-04-08T09:13:54.514Z</time>
      </trkpt>
      <trkpt lat="51.534190" lon="6.995598">
        <ele>90.030477</ele>
        <time>2020-04-08T09:14:19.498Z</time>
      </trkpt>
      <trkpt lat="51.534134" lon="6.995726">
        <ele>89.704595</ele>
        <time>2020-04-08T09:14:57.502Z</time>
      </trkpt>
      <trkpt lat="51.534050" lon="6.995793">
        <ele>89.390672</ele>
        <time>2020-04-08T09:15:00.490Z</time>
      </trkpt>
      <trkpt lat="51.533950" lon="6.995829">
        <ele>89.047604</ele>
        <time>2020-04-08T09:15:06.505Z</time>
      </trkpt>
      <trkpt lat="51.533860" lon="6.995820">
        <ele>88.745723</ele>
        <time>2020-04-08T09:15:14.492Z</time>
      </trkpt>
      <trkpt lat="51.533760" lon="6.995804">
        <ele>88.409292</ele>
        <time>2020-04-08T09:15:22.501Z</time>
      </trkpt>
      <trkpt lat="51.533543" lon="6.995794">
        <ele>87.682529</ele>
        <time>2020-04-08T09:16:33.499Z</time>
      </trkpt>
      <trkpt lat="51.533360" lon="6.995679">
        <ele>87.024743</ele>
        <time>2020-04-08T09:17:36.504Z</time>
      </trkpt>
      <trkpt lat="51.533310" lon="6.995528">
        <ele>86.668509</ele>
        <time>2020-04-08T09:17:38.487Z</time>
      </trkpt>
      <trkpt lat="51.533200" lon="6.995543">
        <ele>86.298932</ele>
        <time>2020-04-08T09:17:46.501Z</time>
      </trkpt>
      <trkpt lat="51.533108" lon="6.995505">
        <ele>85.967250</ele>
        <time>2020-04-08T09:17:52.496Z</time>
      </trkpt>
      <trkpt lat="51.532900" lon="6.995448">
        <ele>84.848049</ele>
        <time>2020-04-08T09:19:12.503Z</time>
      </trkpt>
      <trkpt lat="51.532810" lon="6.995455">
        <ele>84.370107</ele>
        <time>2020-04-08T09:19:19.604Z</time>
      </trkpt>
      <trkpt lat="51.532715" lon="6.995462">
        <ele>83.865674</ele>
        <time>2020-04-08T09:19:30.499Z</time>
      </trkpt>
      <trkpt lat="51.532616" lon="6.995392">
        <ele>83.292001</ele>
        <time>2020-04-08T09:19:39.500Z</time>
      </trkpt>
      <trkpt lat="51.532450" lon="6.995067">
        <ele>81.904455</ele>
        <time>2020-04-08T09:21:35.496Z</time>
      </trkpt>
      <trkpt lat="51.532530" lon="6.994726">
        <ele>80.701926</ele>
        <time>2020-04-08T09:24:56.500Z</time>
      </trkpt>
      <trkpt lat="51.532580" lon="6.994594">
        <ele>80.191984</ele>
        <time>2020-04-08T09:25:03.496Z</time>
      </trkpt>
      <trkpt lat="51.532600" lon="6.994444">
        <ele>79.685800</ele>
        <time>2020-04-08T09:25:08.496Z</time>
      </trkpt>
      <trkpt lat="51.532665" lon="6.994306">
        <ele>79.114651</ele>
        <time>2020-04-08T09:25:14.498Z</time>
      </trkpt>
      <trkpt lat="51.532730" lon="6.994195">
        <ele>78.611645</ele>
        <time>2020-04-08T09:25:21.500Z</time>
      </trkpt>
      <trkpt lat="51.532740" lon="6.994049">
        <ele>78.126992</ele>
        <time>2020-04-08T09:25:32.500Z</time>
      </trkpt>
      <trkpt lat="51.532800" lon="6.993930">
        <ele>77.621559</ele>
        <time>2020-04-08T09:25:41.500Z</time>
      </trkpt>
      <trkpt lat="51.532845" lon="6.993794">
        <ele>77.113281</ele>
        <time>2020-04-08T09:25:49.503Z</time>
      </trkpt>
      <trkpt lat="51.532894" lon="6.993657">
        <ele>76.591844</ele>
        <time>2020-04-08T09:25:57.502Z</time>
      </trkpt>
      <trkpt lat="51.532950" lon="6.993534">
        <ele>77.001367</ele>
        <time>2020-04-08T09:26:04.522Z</time>
      </trkpt>
      <trkpt lat="51.533016" lon="6.993423">
        <ele>77.727592</ele>
        <time>2020-04-08T09:26:11.500Z</time>
      </trkpt>
      <trkpt lat="51.533043" lon="6.993286">
        <ele>78.407278</ele>
        <time>2020-04-08T09:26:19.502Z</time>
      </trkpt>
      <trkpt lat="51.533073" lon="6.993148">
        <ele>79.098661</ele>
        <time>2020-04-08T09:26:30.499Z</time>
      </trkpt>
      <trkpt lat="51.533110" lon="6.992995">
        <ele>79.875035</ele>
        <time>2020-04-08T09:26:38.487Z</time>
      </trkpt>
      <trkpt lat="51.533157" lon="6.992865">
        <ele>80.586174</ele>
        <time>2020-04-08T09:26:47.499Z</time>
      </trkpt>
      <trkpt lat="51.533184" lon="6.992722">
        <ele>81.292962</ele>
        <time>2020-04-08T09:26:55.501Z</time>
      </trkpt>
      <trkpt lat="51.533230" lon="6.992580">
        <ele>82.050161</ele>
        <time>2020-04-08T09:27:02.499Z</time>
      </trkpt>
      <trkpt lat="51.533260" lon="6.992437">
        <ele>82.763907</ele>
        <time>2020-04-08T09:27:10.501Z</time>
      </trkpt>
      <trkpt lat="51.533337" lon="6.992332">
        <ele>83.531590</ele>
        <time>2020-04-08T09:27:20.503Z</time>
      </trkpt>
      <trkpt lat="51.533424" lon="6.992416">
        <ele>84.303184</ele>
        <time>2020-04-08T09:27:47.499Z</time>
      </trkpt>
      <trkpt lat="51.533490" lon="6.992527">
        <ele>85.029405</ele>
        <time>2020-04-08T09:27:53.500Z</time>
      </trkpt>
      <trkpt lat="51.533560" lon="6.992700">
        <ele>86.005467</ele>
        <time>2020-04-08T09:28:06.497Z</time>
      </trkpt>
      <trkpt lat="51.533646" lon="6.992655">
        <ele>86.693088</ele>
        <time>2020-04-08T09:28:20.487Z</time>
      </trkpt>
      <trkpt lat="51.533756" lon="6.993055">
        <ele>88.761492</ele>
        <time>2020-04-08T09:29:35.502Z</time>
      </trkpt>
      <trkpt lat="51.533813" lon="6.993183">
        <ele>89.505993</ele>
        <time>2020-04-08T09:29:45.502Z</time>
      </trkpt>
      <trkpt lat="51.533880" lon="6.993297">
        <ele>90.145559</ele>
        <time>2020-04-08T09:29:53.500Z</time>
      </trkpt>
      <trkpt lat="51.533940" lon="6.993451">
        <ele>90.197956</ele>
        <time>2020-04-08T09:30:03.496Z</time>
      </trkpt>
      <trkpt lat="51.534010" lon="6.993537">
        <ele>90.238795</ele>
        <time>2020-04-08T09:30:10.501Z</time>
      </trkpt>
      <trkpt lat="51.534040" lon="6.993678">
        <ele>90.281765</ele>
        <time>2020-04-08T09:30:20.530Z</time>
      </trkpt>
      <trkpt lat="51.534080" lon="6.993838">
        <ele>90.331488</ele>
        <time>2020-04-08T09:30:29.494Z</time>
      </trkpt>
      <trkpt lat="51.534140" lon="6.993946">
        <ele>90.373241</ele>
        <time>2020-04-08T09:30:35.499Z</time>
      </trkpt>
      <trkpt lat="51.534367" lon="6.994145">
        <ele>90.493095</ele>
        <time>2020-04-08T09:31:29.480Z</time>
      </trkpt>
      <trkpt lat="51.534443" lon="6.994065">
        <ele>90.535205</ele>
        <time>2020-04-08T09:31:38.502Z</time>
      </trkpt>
      <trkpt lat="51.534580" lon="6.993726">
        <ele>90.651773</ele>
        <time>2020-04-08T09:33:02.504Z</time>
      </trkpt>
      <trkpt lat="51.534775" lon="6.993314">
        <ele>90.801050</ele>
        <time>2020-04-08T09:33:55.500Z</time>
      </trkpt>
      <trkpt lat="51.534973" lon="6.993282">
        <ele>90.893295</ele>
        <time>2020-04-08T09:35:45.483Z</time>
      </trkpt>
      <trkpt lat="51.535057" lon="6.993348">
        <ele>90.936635</ele>
        <time>2020-04-08T09:35:51.501Z</time>
      </trkpt>
      <trkpt lat="51.535110" lon="6.993463">
        <ele>90.954395</ele>
        <time>2020-04-08T09:35:59.496Z</time>
      </trkpt>
      <trkpt lat="51.535170" lon="6.993872">
        <ele>90.530053</ele>
        <time>2020-04-08T09:37:16.497Z</time>
      </trkpt>
      <trkpt lat="51.535236" lon="6.993988">
        <ele>90.371305</ele>
        <time>2020-04-08T09:37:23.502Z</time>
      </trkpt>
      <trkpt lat="51.535320" lon="6.994295">
        <ele>90.032628</ele>
        <time>2020-04-08T09:38:28.499Z</time>
      </trkpt>
      <trkpt lat="51.535374" lon="6.994411">
        <ele>89.886321</ele>
        <time>2020-04-08T09:38:40.502Z</time>
      </trkpt>
      <trkpt lat="51.535446" lon="6.994515">
        <ele>89.729187</ele>
        <time>2020-04-08T09:38:49.588Z</time>
      </trkpt>
      <trkpt lat="51.535503" lon="6.994634">
        <ele>89.577521</ele>
        <time>2020-04-08T09:39:00.496Z</time>
      </trkpt>
      <trkpt lat="51.535522" lon="6.994792">
        <ele>89.415019</ele>
        <time>2020-04-08T09:39:11.496Z</time>
      </trkpt>
      <trkpt lat="51.535553" lon="6.994933">
        <ele>89.264005</ele>
        <time>2020-04-08T09:39:23.505Z</time>
      </trkpt>
      <trkpt lat="51.535603" lon="6.995065">
        <ele>89.107942</ele>
        <time>2020-04-08T09:39:28.503Z</time>
      </trkpt>
      <trkpt lat="51.535664" lon="6.995203">
        <ele>88.936988</ele>
        <time>2020-04-08T09:39:41.527Z</time>
      </trkpt>
      <trkpt lat="51.535755" lon="6.995242">
        <ele>88.784100</ele>
        <time>2020-04-08T09:39:48.640Z</time>
      </trkpt>
      <trkpt lat="51.535942" lon="6.995339">
        <ele>88.465114</ele>
        <time>2020-04-08T09:41:10.483Z</time>
      </trkpt>
      <trkpt lat="51.536060" lon="6.995740">
        <ele>87.978285</ele>
        <time>2020-04-08T09:41:49.504Z</time>
      </trkpt>
      <trkpt lat="51.536090" lon="6.995893">
        <ele>87.639435</ele>
        <time>2020-04-08T09:41:56.499Z</time>
      </trkpt>
      <trkpt lat="51.536120" lon="6.996031">
        <ele>87.330656</ele>
        <time>2020-04-08T09:42:06.500Z</time>
      </trkpt>
      <trkpt lat="51.536175" lon="6.996151">
        <ele>87.015809</ele>
        <time>2020-04-08T09:42:16.497Z</time>
      </trkpt>
      <trkpt lat="51.536213" lon="6.996351">
        <ele>86.574092</ele>
        <time>2020-04-08T09:42:39.499Z</time>
      </trkpt>
      <trkpt lat="51.536274" lon="6.996529">
        <ele>86.144828</ele>
        <time>2020-04-08T09:42:44.503Z</time>
      </trkpt>
      <trkpt lat="51.536278" lon="6.996686">
        <ele>85.812929</ele>
        <time>2020-04-08T09:42:48.501Z</time>
      </trkpt>
      <trkpt lat="51.536335" lon="6.996837">
        <ele>85.439844</ele>
        <time>2020-04-08T09:42:53.505Z</time>
      </trkpt>
      <trkpt lat="51.536390" lon="6.996977">
        <ele>85.090089</ele>
        <time>2020-04-08T09:42:59.503Z</time>
      </trkpt>
      <trkpt lat="51.536420" lon="6.997114">
        <ele>84.783306</ele>
        <time>2020-04-08T09:43:07.514Z</time>
      </trkpt>
      <trkpt lat="51.536460" lon="6.997241">
        <ele>84.482623</ele>
        <time>2020-04-08T09:43:12.499Z</time>
      </trkpt>
      <trkpt lat="51.536495" lon="6.997385">
        <ele>84.156066</ele>
        <time>2020-04-08T09:43:19.500Z</time>
      </trkpt>
      <trkpt lat="51.536570" lon="6.997486">
        <ele>83.823839</ele>
        <time>2020-04-08T09:43:27.498Z</time>
      </trkpt>
      <trkpt lat="51.536625" lon="6.997610">
        <ele>83.502153</ele>
        <time>2020-04-08T09:43:36.495Z</time>
      </trkpt>
      <trkpt lat="51.536670" lon="6.997757">
        <ele>83.156091</ele>
        <time>2020-04-08T09:43:44.496Z</time>
      </trkpt>
      <trkpt lat="51.536713" lon="6.997891">
        <ele>82.837608</ele>
        <time>2020-04-08T09:43:52.496Z</time>
      </trkpt>
      <trkpt lat="51.536766" lon="6.998025">
        <ele>82.502196</ele>
        <time>2020-04-08T09:44:01.497Z</time>
      </trkpt>
      <trkpt lat="51.536846" lon="6.998120">
        <ele>82.164462</ele>
        <time>2020-04-08T09:44:11.497Z</time>
      </trkpt>
      <trkpt lat="51.536940" lon="6.998141">
        <ele>82.235478</ele>
        <time>2020-04-08T09:44:20.496Z</time>
      </trkpt>
      <trkpt lat="51.537033" lon="6.998161">
        <ele>83.135862</ele>
        <time>2020-04-08T09:44:28.496Z</time>
      </trkpt>
      <trkpt lat="51.537132" lon="6.998135">
        <ele>84.098466</ele>
        <time>2020-04-08T09:44:35.503Z</time>
      </trkpt>
      <trkpt lat="51.537212" lon="6.998060">
        <ele>84.987141</ele>
        <time>2020-04-08T09:44:45.505Z</time>
      </trkpt>
      <trkpt lat="51.537310" lon="6.998086">
        <ele>85.940275</ele>
        <time>2020-04-08T09:44:54.500Z</time>
      </trkpt>
      <trkpt lat="51.537390" lon="6.998167">
        <ele>86.847517</ele>
        <time>2020-04-08T09:45:02.495Z</time>
      </trkpt>
      <trkpt lat="51.537450" lon="6.998288">
        <ele>87.771158</ele>
        <time>2020-04-08T09:45:08.496Z</time>
      </trkpt>
      <trkpt lat="51.537457" lon="6.998456">
        <ele>88.776161</ele>
        <time>2020-04-08T09:45:19.501Z</time>
      </trkpt>
      <trkpt lat="51.537453" lon="6.998624">
        <ele>89.779652</ele>
        <time>2020-04-08T09:45:28.501Z</time>
      </trkpt>
      <trkpt lat="51.537450" lon="6.998782">
        <ele>90.723160</ele>
        <time>2020-04-08T09:45:39.503Z</time>
      </trkpt>
      <trkpt lat="51.537490" lon="6.998912">
        <ele>91.588851</ele>
        <time>2020-04-08T09:45:46.495Z</time>
      </trkpt>
      <trkpt lat="51.537525" lon="6.999047">
        <ele>92.461831</ele>
        <time>2020-04-08T09:45:57.505Z</time>
      </trkpt>
      <trkpt lat="51.537613" lon="6.999104">
        <ele>93.372245</ele>
        <time>2020-04-08T09:46:06.505Z</time>
      </trkpt>
      <trkpt lat="51.537660" lon="6.999254">
        <ele>94.374743</ele>
        <time>2020-04-08T09:46:15.501Z</time>
      </trkpt>
      <trkpt lat="51.537674" lon="6.999397">
        <ele>95.238784</ele>
        <time>2020-04-08T09:46:22.535Z</time>
      </trkpt>
      <trkpt lat="51.537785" lon="6.999408">
        <ele>96.305970</ele>
        <time>2020-04-08T09:46:31.495Z</time>
      </trkpt>
      <trkpt lat="51.537900" lon="6.999209">
        <ele>97.927277</ele>
        <time>2020-04-08T09:49:19.502Z</time>
      </trkpt>
      <trkpt lat="51.537884" lon="6.999058">
        <ele>98.841540</ele>
        <time>2020-04-08T09:49:30.499Z</time>
      </trkpt>
      <trkpt lat="51.537964" lon="6.998800">
        <ele>99.805859</ele>
        <time>2020-04-08T09:50:35.507Z</time>
      </trkpt>
      <trkpt lat="51.537918" lon="6.998675">
        <ele>100.189679</ele>
        <time>2020-04-08T09:50:44.502Z</time>
      </trkpt>
      <trkpt lat="51.537907" lon="6.998839">
        <ele>100.625590</ele>
        <time>2020-04-08T09:50:46.503Z</time>
      </trkpt>
      <trkpt lat="51.538010" lon="6.998845">
        <ele>101.063492</ele>
        <time>2020-04-08T09:51:03.502Z</time>
      </trkpt>
      <trkpt lat="51.537964" lon="6.998972">
        <ele>101.451870</ele>
        <time>2020-04-08T09:51:33.509Z</time>
      </trkpt>
      <trkpt lat="51.537980" lon="6.999157">
        <ele>101.945467</ele>
        <time>2020-04-08T09:52:03.500Z</time>
      </trkpt>
      <trkpt lat="51.538044" lon="6.999287">
        <ele>102.383603</ele>
        <time>2020-04-08T09:52:11.499Z</time>
      </trkpt>
      <trkpt lat="51.538097" lon="6.999412">
        <ele>102.783386</ele>
        <time>2020-04-08T09:52:18.502Z</time>
      </trkpt>
      <trkpt lat="51.538113" lon="6.999555">
        <ele>103.167352</ele>
        <time>2020-04-08T09:52:30.481Z</time>
      </trkpt>
      <trkpt lat="51.538216" lon="6.999635">
        <ele>103.653359</ele>
        <time>2020-04-08T09:52:39.504Z</time>
      </trkpt>
      <trkpt lat="51.538254" lon="6.999785">
        <ele>104.081375</ele>
        <time>2020-04-08T09:52:49.501Z</time>
      </trkpt>
      <trkpt lat="51.538290" lon="6.999946">
        <ele>104.533500</ele>
        <time>2020-04-08T09:53:01.501Z</time>
      </trkpt>
      <trkpt lat="51.538353" lon="7.000047">
        <ele>104.911502</ele>
        <time>2020-04-08T09:53:08.502Z</time>
      </trkpt>
      <trkpt lat="51.538370" lon="7.000207">
        <ele>105.340450</ele>
        <time>2020-04-08T09:53:27.494Z</time>
      </trkpt>
      <trkpt lat="51.538445" lon="7.000373">
        <ele>105.882648</ele>
        <time>2020-04-08T09:53:35.503Z</time>
      </trkpt>
      <trkpt lat="51.538530" lon="7.000507">
        <ele>106.388432</ele>
        <time>2020-04-08T09:53:43.502Z</time>
      </trkpt>
      <trkpt lat="51.538544" lon="7.000650">
        <ele>106.770982</ele>
        <time>2020-04-08T09:53:48.502Z</time>
      </trkpt>
      <trkpt lat="51.538510" lon="7.000800">
        <ele>106.837903</ele>
        <time>2020-04-08T09:53:57.504Z</time>
      </trkpt>
      <trkpt lat="51.538590" lon="7.000903">
        <ele>106.826722</ele>
        <time>2020-04-08T09:54:05.490Z</time>
      </trkpt>
      <trkpt lat="51.538650" lon="7.001029">
        <ele>106.815954</ele>
        <time>2020-04-08T09:54:14.500Z</time>
      </trkpt>
      <trkpt lat="51.538710" lon="7.001144">
        <ele>106.805769</ele>
        <time>2020-04-08T09:54:22.501Z</time>
      </trkpt>
      <trkpt lat="51.538788" lon="7.001249">
        <ele>106.794671</ele>
        <time>2020-04-08T09:54:29.502Z</time>
      </trkpt>
      <trkpt lat="51.538868" lon="7.001357">
        <ele>106.783275</ele>
        <time>2020-04-08T09:54:39.497Z</time>
      </trkpt>
      <trkpt lat="51.538960" lon="7.001422">
        <ele>106.772312</ele>
        <time>2020-04-08T09:54:48.497Z</time>
      </trkpt>
      <trkpt lat="51.539050" lon="7.001433">
        <ele>106.762466</ele>
        <time>2020-04-08T09:55:02.493Z</time>
      </trkpt>
      <trkpt lat="51.539127" lon="7.001353">
        <ele>106.752464</ele>
        <time>2020-04-08T09:55:15.495Z</time>
      </trkpt>
      <trkpt lat="51.539190" lon="7.001236">
        <ele>106.741964</ele>
        <time>2020-04-08T09:55:25.500Z</time>
      </trkpt>
      <trkpt lat="51.539246" lon="7.001105">
        <ele>106.731178</ele>
        <time>2020-04-08T09:55:32.501Z</time>
      </trkpt>
      <trkpt lat="51.539310" lon="7.000984">
        <ele>106.720400</ele>
        <time>2020-04-08T09:55:43.495Z</time>
      </trkpt>
      <trkpt lat="51.539380" lon="7.000854">
        <ele>106.708733</ele>
        <time>2020-04-08T09:55:49.495Z</time>
      </trkpt>
      <trkpt lat="51.539448" lon="7.000741">
        <ele>106.698064</ele>
        <time>2020-04-08T09:55:59.502Z</time>
      </trkpt>
      <trkpt lat="51.539470" lon="7.000600">
        <ele>106.688201</ele>
        <time>2020-04-08T09:56:12.495Z</time>
      </trkpt>
      <trkpt lat="51.539505" lon="7.000455">
        <ele>106.677647</ele>
        <time>2020-04-08T09:56:18.499Z</time>
      </trkpt>
      <trkpt lat="51.539580" lon="7.000366">
        <ele>106.667478</ele>
        <time>2020-04-08T09:56:25.502Z</time>
      </trkpt>
      <trkpt lat="51.539650" lon="7.000239">
        <ele>106.655964</ele>
        <time>2020-04-08T09:56:31.500Z</time>
      </trkpt>
      <trkpt lat="51.539715" lon="7.000124">
        <ele>106.726143</ele>
        <time>2020-04-08T09:56:42.499Z</time>
      </trkpt>
      <trkpt lat="51.539787" lon="7.000019">
        <ele>106.881744</ele>
        <time>2020-04-08T09:56:47.494Z</time>
      </trkpt>
      <trkpt lat="51.539864" lon="6.999912">
        <ele>107.044658</ele>
        <time>2020-04-08T09:56:54.507Z</time>
      </trkpt>
      <trkpt lat="51.539920" lon="6.999792">
        <ele>107.194021</ele>
        <time>2020-04-08T09:57:01.499Z</time>
      </trkpt>
      <trkpt lat="51.539997" lon="6.999693">
        <ele>107.351841</ele>
        <time>2020-04-08T09:57:07.500Z</time>
      </trkpt>
      <trkpt lat="51.540005" lon="6.999549">
        <ele>107.495779</ele>
        <time>2020-04-08T09:57:23.502Z</time>
      </trkpt>
      <trkpt lat="51.539948" lon="6.999408">
        <ele>107.663206</ele>
        <time>2020-04-08T09:57:30.502Z</time>
      </trkpt>
      <trkpt lat="51.539898" lon="6.999261">
        <ele>107.830016</ele>
        <time>2020-04-08T09:57:37.498Z</time>
      </trkpt>
      <trkpt lat="51.539850" lon="6.999122">
        <ele>107.988305</ele>
        <time>2020-04-08T09:57:44.501Z</time>
      </trkpt>
      <trkpt lat="51.539757" lon="6.999071">
        <ele>108.145595</ele>
        <time>2020-04-08T09:57:52.496Z</time>
      </trkpt>
      <trkpt lat="51.539680" lon="6.998992">
        <ele>108.291809</ele>
        <time>2020-04-08T09:57:59.498Z</time>
      </trkpt>
      <trkpt lat="51.539620" lon="6.998846">
        <ele>108.466032</ele>
        <time>2020-04-08T09:58:05.509Z</time>
      </trkpt>
      <trkpt lat="51.539543" lon="6.998764">
        <ele>108.613875</ele>
        <time>2020-04-08T09:58:12.503Z</time>
      </trkpt>
      <trkpt lat="51.539450" lon="6.998753">
        <ele>108.763146</ele>
        <time>2020-04-08T09:58:39.501Z</time>
      </trkpt>
      <trkpt lat="51.539356" lon="6.998797">
        <ele>108.919862</ele>
        <time>2020-04-08T09:58:44.503Z</time>
      </trkpt>
      <trkpt lat="51.539265" lon="6.998829">
        <ele>109.068972</ele>
        <time>2020-04-08T09:58:49.503Z</time>
      </trkpt>
      <trkpt lat="51.539170" lon="6.998864">
        <ele>109.224984</ele>
        <time>2020-04-08T09:58:56.502Z</time>
      </trkpt>
      <trkpt lat="51.539080" lon="6.998895">
        <ele>109.372319</ele>
        <time>2020-04-08T09:59:03.495Z</time>
      </trkpt>
      <trkpt lat="51.538998" lon="6.998962">
        <ele>109.519557</ele>
        <time>2020-04-08T09:59:10.498Z</time>
      </trkpt>
      <trkpt lat="51.538890" lon="6.998953">
        <ele>108.553527</ele>
        <time>2020-04-08T09:59:18.497Z</time>
      </trkpt>
      <trkpt lat="51.538795" lon="6.998950">
        <ele>107.642315</ele>
        <time>2020-04-08T09:59:25.496Z</time>
      </trkpt>
      <trkpt lat="51.538700" lon="6.998909">
        <ele>106.699027</ele>
        <time>2020-04-08T09:59:33.498Z</time>
      </trkpt>
      <trkpt lat="51.538610" lon="6.998871">
        <ele>105.806674</ele>
        <time>2020-04-08T09:59:43.498Z</time>
      </trkpt>
      <trkpt lat="51.538513" lon="6.998830">
        <ele>104.844848</ele>
        <time>2020-04-08T09:59:49.501Z</time>
      </trkpt>
      <trkpt lat="51.538420" lon="6.998877">
        <ele>103.909968</ele>
        <time>2020-04-08T09:59:56.497Z</time>
      </trkpt>
      <trkpt lat="51.538326" lon="6.998844">
        <ele>102.987282</ele>
        <time>2020-04-08T10:00:05.498Z</time>
      </trkpt>
      <trkpt lat="51.538074" lon="6.998789">
        <ele>100.548473</ele>
        <time>2020-04-08T10:00:44.498Z</time>
      </trkpt>
      <trkpt lat="51.537983" lon="6.998800">
        <ele>99.673333</ele>
        <time>2020-04-08T10:00:51.498Z</time>
      </trkpt>
      <trkpt lat="51.537907" lon="6.998887">
        <ele>98.778631</ele>
        <time>2020-04-08T10:01:12.498Z</time>
      </trkpt>
      <trkpt lat="51.537834" lon="6.999004">
        <ele>97.790132</ele>
        <time>2020-04-08T10:01:22.501Z</time>
      </trkpt>
      <trkpt lat="51.537857" lon="6.999173">
        <ele>96.758221</ele>
        <time>2020-04-08T10:01:30.546Z</time>
      </trkpt>
      <trkpt lat="51.537926" lon="6.999273">
        <ele>95.867356</ele>
        <time>2020-04-08T10:01:36.498Z</time>
      </trkpt>
      <trkpt lat="51.537876" lon="6.999397">
        <ele>94.985889</ele>
        <time>2020-04-08T10:01:42.504Z</time>
      </trkpt>
      <trkpt lat="51.537792" lon="6.999340">
        <ele>94.111529</ele>
        <time>2020-04-08T10:01:51.503Z</time>
      </trkpt>
      <trkpt lat="51.537548" lon="6.999149">
        <ele>92.239428</ele>
        <time>2020-04-08T10:02:38.511Z</time>
      </trkpt>
      <trkpt lat="51.537470" lon="6.999055">
        <ele>92.189086</ele>
        <time>2020-04-08T10:02:44.504Z</time>
      </trkpt>
      <trkpt lat="51.537445" lon="6.998900">
        <ele>92.137650</ele>
        <time>2020-04-08T10:02:48.502Z</time>
      </trkpt>
      <trkpt lat="51.537415" lon="6.998745">
        <ele>92.085507</ele>
        <time>2020-04-08T10:02:56.502Z</time>
      </trkpt>
      <trkpt lat="51.537430" lon="6.998593">
        <ele>92.036071</ele>
        <time>2020-04-08T10:03:01.510Z</time>
      </trkpt>
      <trkpt lat="51.537490" lon="6.998483">
        <ele>91.989075</ele>
        <time>2020-04-08T10:03:15.504Z</time>
      </trkpt>
      <trkpt lat="51.537582" lon="6.998545">
        <ele>91.937559</ele>
        <time>2020-04-08T10:03:27.480Z</time>
      </trkpt>
      <trkpt lat="51.537827" lon="6.998565">
        <ele>91.810872</ele>
        <time>2020-04-08T10:04:14.500Z</time>
      </trkpt>
      <trkpt lat="51.537918" lon="6.998526">
        <ele>91.762236</ele>
        <time>2020-04-08T10:04:20.489Z</time>
      </trkpt>
      <trkpt lat="51.538010" lon="6.998517">
        <ele>91.714637</ele>
        <time>2020-04-08T10:04:29.502Z</time>
      </trkpt>
      <trkpt lat="51.538097" lon="6.998494">
        <ele>91.669105</ele>
        <time>2020-04-08T10:04:35.504Z</time>
      </trkpt>
      <trkpt lat="51.538197" lon="6.998477">
        <ele>91.617175</ele>
        <time>2020-04-08T10:04:41.505Z</time>
      </trkpt>
      <trkpt lat="51.538338" lon="6.998472">
        <ele>91.544341</ele>
        <time>2020-04-08T10:04:49.503Z</time>
      </trkpt>
      <trkpt lat="51.538430" lon="6.998404">
        <ele>91.492049</ele>
        <time>2020-04-08T10:05:05.507Z</time>
      </trkpt>
      <trkpt lat="51.538536" lon="6.998394">
        <ele>91.437214</ele>
        <time>2020-04-08T10:05:14.522Z</time>
      </trkpt>
      <trkpt lat="51.538624" lon="6.998323">
        <ele>91.386368</ele>
        <time>2020-04-08T10:05:46.500Z</time>
      </trkpt>
      <trkpt lat="51.538715" lon="6.998280">
        <ele>91.461569</ele>
        <time>2020-04-08T10:05:51.479Z</time>
      </trkpt>
      <trkpt lat="51.538807" lon="6.998279">
        <ele>91.814019</ele>
        <time>2020-04-08T10:05:55.507Z</time>
      </trkpt>
      <trkpt lat="51.538902" lon="6.998268">
        <ele>92.178896</ele>
        <time>2020-04-08T10:06:01.502Z</time>
      </trkpt>
      <trkpt lat="51.538948" lon="6.998125">
        <ele>92.562501</ele>
        <time>2020-04-08T10:06:09.502Z</time>
      </trkpt>
      <trkpt lat="51.539047" lon="6.998088">
        <ele>92.951871</ele>
        <time>2020-04-08T10:06:17.504Z</time>
      </trkpt>
      <trkpt lat="51.539112" lon="6.997985">
        <ele>93.301495</ele>
        <time>2020-04-08T10:06:35.501Z</time>
      </trkpt>
      <trkpt lat="51.539307" lon="6.997784">
        <ele>94.188860</ele>
        <time>2020-04-08T10:07:02.500Z</time>
      </trkpt>
      <trkpt lat="51.539383" lon="6.997694">
        <ele>94.550459</ele>
        <time>2020-04-08T10:07:07.498Z</time>
      </trkpt>
      <trkpt lat="51.539463" lon="6.997604">
        <ele>94.924506</ele>
        <time>2020-04-08T10:07:13.497Z</time>
      </trkpt>
      <trkpt lat="51.539547" lon="6.997538">
        <ele>95.282671</ele>
        <time>2020-04-08T10:07:18.497Z</time>
      </trkpt>
      <trkpt lat="51.539630" lon="6.997462">
        <ele>95.648585</ele>
        <time>2020-04-08T10:07:27.497Z</time>
      </trkpt>
      <trkpt lat="51.539707" lon="6.997374">
        <ele>96.010493</ele>
        <time>2020-04-08T10:07:38.499Z</time>
      </trkpt>
      <trkpt lat="51.539780" lon="6.997264">
        <ele>96.393771</ele>
        <time>2020-04-08T10:07:46.494Z</time>
      </trkpt>
      <trkpt lat="51.539837" lon="6.997152">
        <ele>96.738585</ele>
        <time>2020-04-08T10:07:53.503Z</time>
      </trkpt>
      <trkpt lat="51.539890" lon="6.997028">
        <ele>97.097079</ele>
        <time>2020-04-08T10:07:59.497Z</time>
      </trkpt>
      <trkpt lat="51.539970" lon="6.996934">
        <ele>97.476669</ele>
        <time>2020-04-08T10:08:05.498Z</time>
      </trkpt>
      <trkpt lat="51.540000" lon="6.996793">
        <ele>97.831742</ele>
        <time>2020-04-08T10:08:15.502Z</time>
      </trkpt>
      <trkpt lat="51.540060" lon="6.996675">
        <ele>98.194897</ele>
        <time>2020-04-08T10:08:22.483Z</time>
      </trkpt>
      <trkpt lat="51.540092" lon="6.996534">
        <ele>97.890136</ele>
        <time>2020-04-08T10:08:30.496Z</time>
      </trkpt>
      <trkpt lat="51.540160" lon="6.996421">
        <ele>97.464231</ele>
        <time>2020-04-08T10:08:37.504Z</time>
      </trkpt>
      <trkpt lat="51.540215" lon="6.996301">
        <ele>97.060458</ele>
        <time>2020-04-08T10:08:44.500Z</time>
      </trkpt>
      <trkpt lat="51.540287" lon="6.996210">
        <ele>96.661602</ele>
        <time>2020-04-08T10:08:49.500Z</time>
      </trkpt>
      <trkpt lat="51.540330" lon="6.996080">
        <ele>96.262766</ele>
        <time>2020-04-08T10:08:57.504Z</time>
      </trkpt>
      <trkpt lat="51.540398" lon="6.995954">
        <ele>95.810891</ele>
        <time>2020-04-08T10:09:03.503Z</time>
      </trkpt>
      <trkpt lat="51.540455" lon="6.995831">
        <ele>95.395404</ele>
        <time>2020-04-08T10:09:10.500Z</time>
      </trkpt>
      <trkpt lat="51.540520" lon="6.995719">
        <ele>94.980465</ele>
        <time>2020-04-08T10:09:16.502Z</time>
      </trkpt>
      <trkpt lat="51.540573" lon="6.995592">
        <ele>94.566194</ele>
        <time>2020-04-08T10:09:24.501Z</time>
      </trkpt>
      <trkpt lat="51.540646" lon="6.995482">
        <ele>94.130469</ele>
        <time>2020-04-08T10:09:31.600Z</time>
      </trkpt>
      <trkpt lat="51.540726" lon="6.995396">
        <ele>93.711356</ele>
        <time>2020-04-08T10:09:39.500Z</time>
      </trkpt>
      <trkpt lat="51.540810" lon="6.995343">
        <ele>93.318364</ele>
        <time>2020-04-08T10:09:45.499Z</time>
      </trkpt>
      <trkpt lat="51.540920" lon="6.995356">
        <ele>92.838006</ele>
        <time>2020-04-08T10:09:58.498Z</time>
      </trkpt>
      <trkpt lat="51.541023" lon="6.995375">
        <ele>92.386485</ele>
        <time>2020-04-08T10:10:06.505Z</time>
      </trkpt>
      <trkpt lat="51.541122" lon="6.995436">
        <ele>91.924750</ele>
        <time>2020-04-08T10:10:17.494Z</time>
      </trkpt>
      <trkpt lat="51.541023" lon="6.995394">
        <ele>91.478835</ele>
        <time>2020-04-08T10:10:28.495Z</time>
      </trkpt>
      <trkpt lat="51.540955" lon="6.995286">
        <ele>91.062561</ele>
        <time>2020-04-08T10:10:37.496Z</time>
      </trkpt>
      <trkpt lat="51.540863" lon="6.995232">
        <ele>90.636025</ele>
        <time>2020-04-08T10:10:44.491Z</time>
      </trkpt>
      <trkpt lat="51.540836" lon="6.995089">
        <ele>90.148841</ele>
        <time>2020-04-08T10:10:51.500Z</time>
      </trkpt>
      <trkpt lat="51.540733" lon="6.995060">
        <ele>89.482632</ele>
        <time>2020-04-08T10:11:00.503Z</time>
      </trkpt>
      <trkpt lat="51.540640" lon="6.995026">
        <ele>88.874996</ele>
        <time>2020-04-08T10:11:06.499Z</time>
      </trkpt>
      <trkpt lat="51.540558" lon="6.995092">
        <ele>88.290761</ele>
        <time>2020-04-08T10:11:13.501Z</time>
      </trkpt>
      <trkpt lat="51.540546" lon="6.994946">
        <ele>87.707195</ele>
        <time>2020-04-08T10:11:18.500Z</time>
      </trkpt>
      <trkpt lat="51.540604" lon="6.994804">
        <ele>87.034022</ele>
        <time>2020-04-08T10:11:31.497Z</time>
      </trkpt>
      <trkpt lat="51.540634" lon="6.994664">
        <ele>86.447260</ele>
        <time>2020-04-08T10:11:39.496Z</time>
      </trkpt>
      <trkpt lat="51.540672" lon="6.994516">
        <ele>85.812794</ele>
        <time>2020-04-08T10:11:46.496Z</time>
      </trkpt>
      <trkpt lat="51.540695" lon="6.994368">
        <ele>85.208305</ele>
        <time>2020-04-08T10:11:53.500Z</time>
      </trkpt>
      <trkpt lat="51.540700" lon="6.994213">
        <ele>84.593283</ele>
        <time>2020-04-08T10:12:02.496Z</time>
      </trkpt>
      <trkpt lat="51.540737" lon="6.994065">
        <ele>83.961221</ele>
        <time>2020-04-08T10:12:08.497Z</time>
      </trkpt>
      <trkpt lat="51.540783" lon="6.993919">
        <ele>83.312692</ele>
        <time>2020-04-08T10:12:16.508Z</time>
      </trkpt>
      <trkpt lat="51.540825" lon="6.993791">
        <ele>82.739228</ele>
        <time>2020-04-08T10:12:25.496Z</time>
      </trkpt>
      <trkpt lat="51.540890" lon="6.993661">
        <ele>82.078277</ele>
        <time>2020-04-08T10:12:31.497Z</time>
      </trkpt>
      <trkpt lat="51.540936" lon="6.993534">
        <ele>81.495917</ele>
        <time>2020-04-08T10:12:38.500Z</time>
      </trkpt>
      <trkpt lat="51.540997" lon="6.993412">
        <ele>80.875641</ele>
        <time>2020-04-08T10:12:44.497Z</time>
      </trkpt>
      <trkpt lat="51.541060" lon="6.993298">
        <ele>80.271353</ele>
        <time>2020-04-08T10:12:51.498Z</time>
      </trkpt>
      <trkpt lat="51.541130" lon="6.993183">
        <ele>79.633741</ele>
        <time>2020-04-08T10:13:00.501Z</time>
      </trkpt>
      <trkpt lat="51.541195" lon="6.993050">
        <ele>78.963486</ele>
        <time>2020-04-08T10:13:08.502Z</time>
      </trkpt>
      <trkpt lat="51.541280" lon="6.992937">
        <ele>79.181906</ele>
        <time>2020-04-08T10:13:16.500Z</time>
      </trkpt>
      <trkpt lat="51.541374" lon="6.992960">
        <ele>79.385897</ele>
        <time>2020-04-08T10:13:24.496Z</time>
      </trkpt>
      <trkpt lat="51.541424" lon="6.992833">
        <ele>79.586456</ele>
        <time>2020-04-08T10:13:43.500Z</time>
      </trkpt>
      <trkpt lat="51.541500" lon="6.992720">
        <ele>79.808537</ele>
        <time>2020-04-08T10:13:53.501Z</time>
      </trkpt>
      <trkpt lat="51.541588" lon="6.992652">
        <ele>80.018005</ele>
        <time>2020-04-08T10:14:02.498Z</time>
      </trkpt>
      <trkpt lat="51.541630" lon="6.992514">
        <ele>80.223007</ele>
        <time>2020-04-08T10:14:14.478Z</time>
      </trkpt>
      <trkpt lat="51.541720" lon="6.992456">
        <ele>80.431027</ele>
        <time>2020-04-08T10:14:20.503Z</time>
      </trkpt>
      <trkpt lat="51.541813" lon="6.992373">
        <ele>80.659226</ele>
        <time>2020-04-08T10:14:27.483Z</time>
      </trkpt>
      <trkpt lat="51.541893" lon="6.992299">
        <ele>80.857234</ele>
        <time>2020-04-08T10:14:35.621Z</time>
      </trkpt>
      <trkpt lat="51.541985" lon="6.992249">
        <ele>81.065583</ele>
        <time>2020-04-08T10:14:40.496Z</time>
      </trkpt>
      <trkpt lat="51.542076" lon="6.992150">
        <ele>81.301306</ele>
        <time>2020-04-08T10:14:48.481Z</time>
      </trkpt>
      <trkpt lat="51.542170" lon="6.992111">
        <ele>81.509580</ele>
        <time>2020-04-08T10:14:50.481Z</time>
      </trkpt>
      <trkpt lat="51.542260" lon="6.992036">
        <ele>81.727060</ele>
        <time>2020-04-08T10:14:54.491Z</time>
      </trkpt>
      <trkpt lat="51.542324" lon="6.991932">
        <ele>81.922277</ele>
        <time>2020-04-08T10:15:02.489Z</time>
      </trkpt>
      <trkpt lat="51.542328" lon="6.991783">
        <ele>82.121274</ele>
        <time>2020-04-08T10:15:10.496Z</time>
      </trkpt>
      <trkpt lat="51.542282" lon="6.991656">
        <ele>82.317374</ele>
        <time>2020-04-08T10:15:21.982Z</time>
      </trkpt>
      <trkpt lat="51.542290" lon="6.991503">
        <ele>82.522244</ele>
        <time>2020-04-08T10:15:29.498Z</time>
      </trkpt>
      <trkpt lat="51.542320" lon="6.991323">
        <ele>82.770894</ele>
        <time>2020-04-08T10:15:36.495Z</time>
      </trkpt>
      <trkpt lat="51.542362" lon="6.991192">
        <ele>82.932542</ele>
        <time>2020-04-08T10:15:42.495Z</time>
      </trkpt>
      <trkpt lat="51.542404" lon="6.991047">
        <ele>83.098936</ele>
        <time>2020-04-08T10:15:50.495Z</time>
      </trkpt>
      <trkpt lat="51.542446" lon="6.990908">
        <ele>83.259695</ele>
        <time>2020-04-08T10:15:57.497Z</time>
      </trkpt>
      <trkpt lat="51.542492" lon="6.990785">
        <ele>83.408999</ele>
        <time>2020-04-08T10:16:02.501Z</time>
      </trkpt>
      <trkpt lat="51.542515" lon="6.990637">
        <ele>83.567691</ele>
        <time>2020-04-08T10:16:12.494Z</time>
      </trkpt>
      <trkpt lat="51.542538" lon="6.990497">
        <ele>83.718323</ele>
        <time>2020-04-08T10:16:17.494Z</time>
      </trkpt>
      <trkpt lat="51.542606" lon="6.990384">
        <ele>83.881890</ele>
        <time>2020-04-08T10:16:25.504Z</time>
      </trkpt>
      <trkpt lat="51.542650" lon="6.990245">
        <ele>84.044138</ele>
        <time>2020-04-08T10:16:31.501Z</time>
      </trkpt>
      <trkpt lat="51.542700" lon="6.990108">
        <ele>84.209379</ele>
        <time>2020-04-08T10:16:40.498Z</time>
      </trkpt>
      <trkpt lat="51.542747" lon="6.989978">
        <ele>84.365802</ele>
        <time>2020-04-08T10:16:47.492Z</time>
      </trkpt>
      <trkpt lat="51.542790" lon="6.989851">
        <ele>84.516223</ele>
        <time>2020-04-08T10:16:54.501Z</time>
      </trkpt>
      <trkpt lat="51.542850" lon="6.989728">
        <ele>84.678837</ele>
        <time>2020-04-08T10:17:02.497Z</time>
      </trkpt>
      <trkpt lat="51.542904" lon="6.989607">
        <ele>84.833760</ele>
        <time>2020-04-08T10:17:09.511Z</time>
      </trkpt>
      <trkpt lat="51.542970" lon="6.989486">
        <ele>85.001182</ele>
        <time>2020-04-08T10:17:16.522Z</time>
      </trkpt>
      <trkpt lat="51.542990" lon="6.989324">
        <ele>85.172991</ele>
        <time>2020-04-08T10:17:24.480Z</time>
      </trkpt>
      <trkpt lat="51.543020" lon="6.989173">
        <ele>85.337889</ele>
        <time>2020-04-08T10:17:31.599Z</time>
      </trkpt>
      <trkpt lat="51.543064" lon="6.989038">
        <ele>85.496438</ele>
        <time>2020-04-08T10:17:38.504Z</time>
      </trkpt>
      <trkpt lat="51.543130" lon="6.988916">
        <ele>85.664643</ele>
        <time>2020-04-08T10:17:44.500Z</time>
      </trkpt>
      <trkpt lat="51.543186" lon="6.988768">
        <ele>85.792647</ele>
        <time>2020-04-08T10:17:51.502Z</time>
      </trkpt>
      <trkpt lat="51.543232" lon="6.988625">
        <ele>85.644505</ele>
        <time>2020-04-08T10:18:03.499Z</time>
      </trkpt>
      <trkpt lat="51.543300" lon="6.988490">
        <ele>85.484651</ele>
        <time>2020-04-08T10:18:11.499Z</time>
      </trkpt>
      <trkpt lat="51.543316" lon="6.988346">
        <ele>85.350050</ele>
        <time>2020-04-08T10:18:17.496Z</time>
      </trkpt>
      <trkpt lat="51.543358" lon="6.988214">
        <ele>85.213616</ele>
        <time>2020-04-08T10:18:26.495Z</time>
      </trkpt>
      <trkpt lat="51.543430" lon="6.988115">
        <ele>85.073450</ele>
        <time>2020-04-08T10:18:32.496Z</time>
      </trkpt>
      <trkpt lat="51.543476" lon="6.987990">
        <ele>84.939803</ele>
        <time>2020-04-08T10:18:39.499Z</time>
      </trkpt>
      <trkpt lat="51.543537" lon="6.987850">
        <ele>84.782512</ele>
        <time>2020-04-08T10:18:46.495Z</time>
      </trkpt>
      <trkpt lat="51.543552" lon="6.987693">
        <ele>84.636353</ele>
        <time>2020-04-08T10:18:53.498Z</time>
      </trkpt>
      <trkpt lat="51.543594" lon="6.987553">
        <ele>84.493326</ele>
        <time>2020-04-08T10:18:59.486Z</time>
      </trkpt>
      <trkpt lat="51.543655" lon="6.987445">
        <ele>84.359084</ele>
        <time>2020-04-08T10:19:06.493Z</time>
      </trkpt>
      <trkpt lat="51.543713" lon="6.987322">
        <ele>84.217051</ele>
        <time>2020-04-08T10:19:12.502Z</time>
      </trkpt>
      <trkpt lat="51.543780" lon="6.987220">
        <ele>84.080539</ele>
        <time>2020-04-08T10:19:17.489Z</time>
      </trkpt>
      <trkpt lat="51.543823" lon="6.987072">
        <ele>83.930229</ele>
        <time>2020-04-08T10:19:25.503Z</time>
      </trkpt>
      <trkpt lat="51.543877" lon="6.986925">
        <ele>83.773133</ele>
        <time>2020-04-08T10:19:29.496Z</time>
      </trkpt>
      <trkpt lat="51.543957" lon="6.986813">
        <ele>83.616192</ele>
        <time>2020-04-08T10:19:36.494Z</time>
      </trkpt>
      <trkpt lat="51.544020" lon="6.986696">
        <ele>83.473790</ele>
        <time>2020-04-08T10:19:42.497Z</time>
      </trkpt>
      <trkpt lat="51.544090" lon="6.986592">
        <ele>83.332780</ele>
        <time>2020-04-08T10:19:51.498Z</time>
      </trkpt>
      <trkpt lat="51.544163" lon="6.986501">
        <ele>83.196117</ele>
        <time>2020-04-08T10:19:58.501Z</time>
      </trkpt>
      <trkpt lat="51.544247" lon="6.986420">
        <ele>83.233509</ele>
        <time>2020-04-08T10:20:05.495Z</time>
      </trkpt>
      <trkpt lat="51.544357" lon="6.986431">
        <ele>83.354151</ele>
        <time>2020-04-08T10:20:11.496Z</time>
      </trkpt>
      <trkpt lat="51.544440" lon="6.986359">
        <ele>83.457383</ele>
        <time>2020-04-08T10:20:15.651Z</time>
      </trkpt>
      <trkpt lat="51.544530" lon="6.986289">
        <ele>83.566819</ele>
        <time>2020-04-08T10:20:21.495Z</time>
      </trkpt>
      <trkpt lat="51.544620" lon="6.986299">
        <ele>83.665570</ele>
        <time>2020-04-08T10:20:28.500Z</time>
      </trkpt>
      <trkpt lat="51.544740" lon="6.986314">
        <ele>83.797322</ele>
        <time>2020-04-08T10:20:34.499Z</time>
      </trkpt>
      <trkpt lat="51.544838" lon="6.986349">
        <ele>83.907209</ele>
        <time>2020-04-08T10:20:40.498Z</time>
      </trkpt>
      <trkpt lat="51.544918" lon="6.986433">
        <ele>84.011796</ele>
        <time>2020-04-08T10:20:45.496Z</time>
      </trkpt>
      <trkpt lat="51.544840" lon="6.986295">
        <ele>84.138742</ele>
        <time>2020-04-08T10:20:58.500Z</time>
      </trkpt>
      <trkpt lat="51.544945" lon="6.986271">
        <ele>84.254834</ele>
        <time>2020-04-08T10:21:07.500Z</time>
      </trkpt>
      <trkpt lat="51.545050" lon="6.986298">
        <ele>84.371230</ele>
        <time>2020-04-08T10:21:12.494Z</time>
      </trkpt>
      <trkpt lat="51.545160" lon="6.986418">
        <ele>84.516734</ele>
        <time>2020-04-08T10:21:19.504Z</time>
      </trkpt>
      <trkpt lat="51.545250" lon="6.986393">
        <ele>84.616709</ele>
        <time>2020-04-08T10:21:24.502Z</time>
      </trkpt>
      <trkpt lat="51.545330" lon="6.986316">
        <ele>84.718769</ele>
        <time>2020-04-08T10:21:32.502Z</time>
      </trkpt>
      <trkpt lat="51.545410" lon="6.986397">
        <ele>84.822253</ele>
        <time>2020-04-08T10:21:37.503Z</time>
      </trkpt>
      <trkpt lat="51.545460" lon="6.986526">
        <ele>84.925728</ele>
        <time>2020-04-08T10:21:42.494Z</time>
      </trkpt>
      <trkpt lat="51.545550" lon="6.986617">
        <ele>85.042102</ele>
        <time>2020-04-08T10:21:48.495Z</time>
      </trkpt>
      <trkpt lat="51.545555" lon="6.986768">
        <ele>85.056254</ele>
        <time>2020-04-08T10:21:59.498Z</time>
      </trkpt>
      <trkpt lat="51.545773" lon="6.987054">
        <ele>84.011371</ele>
        <time>2020-04-08T10:22:43.491Z</time>
      </trkpt>
      <trkpt lat="51.545883" lon="6.987062">
        <ele>83.602436</ele>
        <time>2020-04-08T10:22:47.494Z</time>
      </trkpt>
      <trkpt lat="51.545982" lon="6.987116">
        <ele>83.214192</ele>
        <time>2020-04-08T10:22:54.497Z</time>
      </trkpt>
      <trkpt lat="51.546060" lon="6.987212">
        <ele>82.849403</ele>
        <time>2020-04-08T10:23:00.497Z</time>
      </trkpt>
      <trkpt lat="51.546130" lon="6.987342">
        <ele>82.452253</ele>
        <time>2020-04-08T10:23:08.495Z</time>
      </trkpt>
      <trkpt lat="51.546210" lon="6.987411">
        <ele>82.115109</ele>
        <time>2020-04-08T10:23:14.501Z</time>
      </trkpt>
      <trkpt lat="51.546284" lon="6.987503">
        <ele>81.767727</ele>
        <time>2020-04-08T10:23:20.500Z</time>
      </trkpt>
      <trkpt lat="51.546318" lon="6.987655">
        <ele>81.394658</ele>
        <time>2020-04-08T10:23:28.498Z</time>
      </trkpt>
      <trkpt lat="51.546383" lon="6.987755">
        <ele>81.060573</ele>
        <time>2020-04-08T10:23:33.501Z</time>
      </trkpt>
      <trkpt lat="51.546417" lon="6.987901">
        <ele>80.700513</ele>
        <time>2020-04-08T10:23:41.502Z</time>
      </trkpt>
      <trkpt lat="51.546463" lon="6.988032">
        <ele>80.353064</ele>
        <time>2020-04-08T10:23:49.499Z</time>
      </trkpt>
      <trkpt lat="51.546550" lon="6.988043">
        <ele>80.028966</ele>
        <time>2020-04-08T10:23:54.503Z</time>
      </trkpt>
      <trkpt lat="51.546665" lon="6.988025">
        <ele>79.599860</ele>
        <time>2020-04-08T10:23:57.592Z</time>
      </trkpt>
      <trkpt lat="51.546726" lon="6.988135">
        <ele>79.259475</ele>
        <time>2020-04-08T10:24:05.495Z</time>
      </trkpt>
      <trkpt lat="51.546783" lon="6.988292">
        <ele>78.839610</ele>
        <time>2020-04-08T10:24:10.494Z</time>
      </trkpt>
      <trkpt lat="51.546833" lon="6.988415">
        <ele>78.500233</ele>
        <time>2020-04-08T10:24:19.530Z</time>
      </trkpt>
      <trkpt lat="51.546906" lon="6.988545">
        <ele>78.381715</ele>
        <time>2020-04-08T10:24:26.504Z</time>
      </trkpt>
      <trkpt lat="51.546980" lon="6.988619">
        <ele>78.323064</ele>
        <time>2020-04-08T10:24:32.499Z</time>
      </trkpt>
      <trkpt lat="51.547043" lon="6.988775">
        <ele>78.245210</ele>
        <time>2020-04-08T10:24:41.501Z</time>
      </trkpt>
      <trkpt lat="51.547108" lon="6.988897">
        <ele>78.177969</ele>
        <time>2020-04-08T10:24:48.502Z</time>
      </trkpt>
      <trkpt lat="51.547337" lon="6.989191">
        <ele>77.980743</ele>
        <time>2020-04-08T10:25:56.493Z</time>
      </trkpt>
      <trkpt lat="51.547424" lon="6.989269">
        <ele>77.913702</ele>
        <time>2020-04-08T10:26:04.501Z</time>
      </trkpt>
      <trkpt lat="51.547466" lon="6.989403">
        <ele>77.850895</ele>
        <time>2020-04-08T10:26:08.501Z</time>
      </trkpt>
      <trkpt lat="51.547560" lon="6.989470">
        <ele>77.781692</ele>
        <time>2020-04-08T10:26:15.499Z</time>
      </trkpt>
      <trkpt lat="51.547623" lon="6.989581">
        <ele>77.718793</ele>
        <time>2020-04-08T10:26:19.645Z</time>
      </trkpt>
      <trkpt lat="51.547670" lon="6.989730">
        <ele>77.648865</ele>
        <time>2020-04-08T10:26:25.504Z</time>
      </trkpt>
      <trkpt lat="51.547718" lon="6.989863">
        <ele>77.584503</ele>
        <time>2020-04-08T10:26:35.500Z</time>
      </trkpt>
      <trkpt lat="51.547764" lon="6.989991">
        <ele>77.522627</ele>
        <time>2020-04-08T10:26:43.500Z</time>
      </trkpt>
      <trkpt lat="51.547860" lon="6.990031">
        <ele>77.455880</ele>
        <time>2020-04-08T10:26:45.501Z</time>
      </trkpt>
      <trkpt lat="51.547894" lon="6.990169">
        <ele>77.393753</ele>
        <time>2020-04-08T10:26:52.496Z</time>
      </trkpt>
      <trkpt lat="51.547928" lon="6.990321">
        <ele>77.326144</ele>
        <time>2020-04-08T10:27:00.577Z</time>
      </trkpt>
      <trkpt lat="51.547990" lon="6.990428">
        <ele>77.264931</ele>
        <time>2020-04-08T10:27:08.496Z</time>
      </trkpt>
      <trkpt lat="51.548070" lon="6.990565">
        <ele>77.153669</ele>
        <time>2020-04-08T10:27:13.494Z</time>
      </trkpt>
      <trkpt lat="51.548157" lon="6.990630">
        <ele>77.045399</ele>
        <time>2020-04-08T10:27:23.496Z</time>
      </trkpt>
      <trkpt lat="51.548240" lon="6.990707">
        <ele>76.937253</ele>
        <time>2020-04-08T10:27:31.499Z</time>
      </trkpt>
      <trkpt lat="51.548336" lon="6.990778">
        <ele>76.817995</ele>
        <time>2020-04-08T10:27:37.506Z</time>
      </trkpt>
      <trkpt lat="51.548370" lon="6.990923">
        <ele>76.709235</ele>
        <time>2020-04-08T10:27:43.503Z</time>
      </trkpt>
      <trkpt lat="51.548428" lon="6.991057">
        <ele>76.594650</ele>
        <time>2020-04-08T10:27:50.501Z</time>
      </trkpt>
      <trkpt lat="51.548485" lon="6.991176">
        <ele>76.489228</ele>
        <time>2020-04-08T10:27:56.500Z</time>
      </trkpt>
      <trkpt lat="51.548557" lon="6.991281">
        <ele>76.379529</ele>
        <time>2020-04-08T10:28:04.502Z</time>
      </trkpt>
      <trkpt lat="51.548584" lon="6.991421">
        <ele>76.276655</ele>
        <time>2020-04-08T10:28:13.501Z</time>
      </trkpt>
      <trkpt lat="51.548664" lon="6.991494">
        <ele>76.172842</ele>
        <time>2020-04-08T10:28:25.496Z</time>
      </trkpt>
      <trkpt lat="51.548720" lon="6.991617">
        <ele>76.065853</ele>
        <time>2020-04-08T10:28:33.496Z</time>
      </trkpt>
      <trkpt lat="51.548767" lon="6.991753">
        <ele>75.956655</ele>
        <time>2020-04-08T10:28:39.502Z</time>
      </trkpt>
      <trkpt lat="51.548794" lon="6.991921">
        <ele>75.834873</ele>
        <time>2020-04-08T10:28:48.494Z</time>
      </trkpt>
      <trkpt lat="51.548866" lon="6.992055">
        <ele>75.710584</ele>
        <time>2020-04-08T10:28:58.494Z</time>
      </trkpt>
      <trkpt lat="51.548946" lon="6.992146">
        <ele>75.599990</ele>
        <time>2020-04-08T10:29:05.483Z</time>
      </trkpt>
      <trkpt lat="51.549038" lon="6.992196">
        <ele>75.490387</ele>
        <time>2020-04-08T10:29:12.499Z</time>
      </trkpt>
      <trkpt lat="51.549133" lon="6.992203">
        <ele>75.383056</ele>
        <time>2020-04-08T10:29:21.543Z</time>
      </trkpt>
      <trkpt lat="51.549213" lon="6.992284">
        <ele>75.276360</ele>
        <time>2020-04-08T10:29:29.502Z</time>
      </trkpt>
      <trkpt lat="51.549290" lon="6.992369">
        <ele>75.344975</ele>
        <time>2020-04-08T10:29:36.494Z</time>
      </trkpt>
      <trkpt lat="51.549377" lon="6.992363">
        <ele>75.757152</ele>
        <time>2020-04-08T10:29:41.497Z</time>
      </trkpt>
      <trkpt lat="51.549484" lon="6.992348">
        <ele>76.265537</ele>
        <time>2020-04-08T10:29:46.496Z</time>
      </trkpt>
      <trkpt lat="51.549572" lon="6.992396">
        <ele>76.705376</ele>
        <time>2020-04-08T10:29:52.496Z</time>
      </trkpt>
      <trkpt lat="51.549694" lon="6.992420">
        <ele>77.287145</ele>
        <time>2020-04-08T10:30:07.497Z</time>
      </trkpt>
      <trkpt lat="51.549812" lon="6.992380">
        <ele>77.857949</ele>
        <time>2020-04-08T10:30:14.502Z</time>
      </trkpt>
      <trkpt lat="51.549920" lon="6.992403">
        <ele>78.373609</ele>
        <time>2020-04-08T10:30:20.502Z</time>
      </trkpt>
      <trkpt lat="51.550030" lon="6.992422">
        <ele>78.897268</ele>
        <time>2020-04-08T10:30:28.496Z</time>
      </trkpt>
      <trkpt lat="51.550117" lon="6.992476">
        <ele>79.338674</ele>
        <time>2020-04-08T10:30:33.501Z</time>
      </trkpt>
      <trkpt lat="51.550210" lon="6.992489">
        <ele>79.780532</ele>
        <time>2020-04-08T10:30:37.498Z</time>
      </trkpt>
      <trkpt lat="51.550300" lon="6.992443">
        <ele>80.227527</ele>
        <time>2020-04-08T10:30:45.497Z</time>
      </trkpt>
      <trkpt lat="51.550377" lon="6.992354">
        <ele>80.676364</ele>
        <time>2020-04-08T10:30:53.504Z</time>
      </trkpt>
      <trkpt lat="51.550480" lon="6.992349">
        <ele>81.164117</ele>
        <time>2020-04-08T10:31:01.503Z</time>
      </trkpt>
      <trkpt lat="51.550560" lon="6.992430">
        <ele>81.611582</ele>
        <time>2020-04-08T10:31:09.503Z</time>
      </trkpt>
      <trkpt lat="51.550660" lon="6.992469">
        <ele>82.098633</ele>
        <time>2020-04-08T10:31:19.496Z</time>
      </trkpt>
      <trkpt lat="51.550755" lon="6.992466">
        <ele>82.548384</ele>
        <time>2020-04-08T10:31:28.495Z</time>
      </trkpt>
      <trkpt lat="51.550846" lon="6.992478">
        <ele>82.980561</ele>
        <time>2020-04-08T10:31:36.494Z</time>
      </trkpt>
      <trkpt lat="51.550950" lon="6.992498">
        <ele>83.476332</ele>
        <time>2020-04-08T10:31:41.499Z</time>
      </trkpt>
      <trkpt lat="51.551056" lon="6.992533">
        <ele>83.766415</ele>
        <time>2020-04-08T10:31:47.499Z</time>
      </trkpt>
      <trkpt lat="51.551144" lon="6.992538">
        <ele>83.841014</ele>
        <time>2020-04-08T10:31:54.504Z</time>
      </trkpt>
      <trkpt lat="51.551247" lon="6.992507">
        <ele>83.929790</ele>
        <time>2020-04-08T10:32:02.501Z</time>
      </trkpt>
      <trkpt lat="51.551342" lon="6.992513">
        <ele>84.010335</ele>
        <time>2020-04-08T10:32:09.501Z</time>
      </trkpt>
      <trkpt lat="51.551445" lon="6.992547">
        <ele>84.099414</ele>
        <time>2020-04-08T10:32:16.496Z</time>
      </trkpt>
      <trkpt lat="51.551495" lon="6.992683">
        <ele>84.182644</ele>
        <time>2020-04-08T10:32:19.503Z</time>
      </trkpt>
      <trkpt lat="51.551590" lon="6.992723">
        <ele>84.265839</ele>
        <time>2020-04-08T10:32:28.494Z</time>
      </trkpt>
      <trkpt lat="51.551660" lon="6.992835">
        <ele>84.349493</ele>
        <time>2020-04-08T10:32:33.496Z</time>
      </trkpt>
      <trkpt lat="51.551746" lon="6.992920">
        <ele>84.435011</ele>
        <time>2020-04-08T10:32:41.493Z</time>
      </trkpt>
      <trkpt lat="51.551830" lon="6.992990">
        <ele>84.515161</ele>
        <time>2020-04-08T10:32:48.497Z</time>
      </trkpt>
      <trkpt lat="51.551920" lon="6.993049">
        <ele>84.597499</ele>
        <time>2020-04-08T10:32:56.499Z</time>
      </trkpt>
      <trkpt lat="51.552010" lon="6.993154">
        <ele>84.691696</ele>
        <time>2020-04-08T10:33:03.568Z</time>
      </trkpt>
      <trkpt lat="51.552110" lon="6.993120">
        <ele>84.778288</ele>
        <time>2020-04-08T10:33:12.497Z</time>
      </trkpt>
      <trkpt lat="51.552174" lon="6.993231">
        <ele>84.858030</ele>
        <time>2020-04-08T10:33:16.498Z</time>
      </trkpt>
      <trkpt lat="51.552235" lon="6.993356">
        <ele>84.941736</ele>
        <time>2020-04-08T10:33:20.495Z</time>
      </trkpt>
      <trkpt lat="51.552322" lon="6.993431">
        <ele>85.025363</ele>
        <time>2020-04-08T10:33:28.493Z</time>
      </trkpt>
      <trkpt lat="51.552414" lon="6.993504">
        <ele>85.112274</ele>
        <time>2020-04-08T10:33:49.499Z</time>
      </trkpt>
      <trkpt lat="51.552490" lon="6.993584">
        <ele>85.189226</ele>
        <time>2020-04-08T10:33:55.500Z</time>
      </trkpt>
      <trkpt lat="51.552586" lon="6.993637">
        <ele>85.181422</ele>
        <time>2020-04-08T10:34:05.499Z</time>
      </trkpt>
      <trkpt lat="51.552666" lon="6.993747">
        <ele>85.020424</ele>
        <time>2020-04-08T10:34:11.500Z</time>
      </trkpt>
      <trkpt lat="51.552746" lon="6.993866">
        <ele>84.853736</ele>
        <time>2020-04-08T10:34:19.491Z</time>
      </trkpt>
      <trkpt lat="51.552780" lon="6.994003">
        <ele>84.713438</ele>
        <time>2020-04-08T10:34:25.500Z</time>
      </trkpt>
      <trkpt lat="51.552826" lon="6.994135">
        <ele>84.569518</ele>
        <time>2020-04-08T10:34:31.492Z</time>
      </trkpt>
      <trkpt lat="51.552876" lon="6.994291">
        <ele>84.402593</ele>
        <time>2020-04-08T10:34:37.495Z</time>
      </trkpt>
      <trkpt lat="51.552963" lon="6.994346">
        <ele>84.259603</ele>
        <time>2020-04-08T10:34:44.500Z</time>
      </trkpt>
      <trkpt lat="51.552975" lon="6.994529">
        <ele>84.084585</ele>
        <time>2020-04-08T10:34:50.504Z</time>
      </trkpt>
      <trkpt lat="51.553066" lon="6.994589">
        <ele>83.934145</ele>
        <time>2020-04-08T10:34:58.497Z</time>
      </trkpt>
      <trkpt lat="51.553180" lon="6.994567">
        <ele>83.758516</ele>
        <time>2020-04-08T10:35:05.479Z</time>
      </trkpt>
      <trkpt lat="51.553253" lon="6.994663">
        <ele>83.614275</ele>
        <time>2020-04-08T10:35:14.493Z</time>
      </trkpt>
      <trkpt lat="51.553284" lon="6.994811">
        <ele>83.465740</ele>
        <time>2020-04-08T10:35:18.495Z</time>
      </trkpt>
      <trkpt lat="51.553370" lon="6.994897">
        <ele>83.310836</ele>
        <time>2020-04-08T10:35:25.495Z</time>
      </trkpt>
      <trkpt lat="51.553432" lon="6.995005">
        <ele>83.171032</ele>
        <time>2020-04-08T10:35:32.494Z</time>
      </trkpt>
      <trkpt lat="51.553436" lon="6.995183">
        <ele>83.001625</ele>
        <time>2020-04-08T10:35:38.493Z</time>
      </trkpt>
      <trkpt lat="51.553530" lon="6.995119">
        <ele>82.845487</ele>
        <time>2020-04-08T10:35:42.493Z</time>
      </trkpt>
      <trkpt lat="51.553540" lon="6.995273">
        <ele>82.698221</ele>
        <time>2020-04-08T10:35:51.500Z</time>
      </trkpt>
      <trkpt lat="51.553620" lon="6.995345">
        <ele>82.557993</ele>
        <time>2020-04-08T10:35:55.497Z</time>
      </trkpt>
      <trkpt lat="51.553703" lon="6.995413">
        <ele>82.455394</ele>
        <time>2020-04-08T10:36:00.499Z</time>
      </trkpt>
      <trkpt lat="51.553673" lon="6.995552">
        <ele>82.389854</ele>
        <time>2020-04-08T10:36:05.499Z</time>
      </trkpt>
      <trkpt lat="51.553715" lon="6.995721">
        <ele>82.308784</ele>
        <time>2020-04-08T10:36:11.501Z</time>
      </trkpt>
      <trkpt lat="51.553795" lon="6.995830">
        <ele>82.233671</ele>
        <time>2020-04-08T10:36:18.495Z</time>
      </trkpt>
      <trkpt lat="51.553886" lon="6.995886">
        <ele>82.163870</ele>
        <time>2020-04-08T10:36:21.496Z</time>
      </trkpt>
      <trkpt lat="51.553960" lon="6.995979">
        <ele>82.096591</ele>
        <time>2020-04-08T10:36:46.499Z</time>
      </trkpt>
      <trkpt lat="51.554150" lon="6.996241">
        <ele>81.917296</ele>
        <time>2020-04-08T10:37:20.501Z</time>
      </trkpt>
      <trkpt lat="51.554203" lon="6.996044">
        <ele>81.821683</ele>
        <time>2020-04-08T10:37:33.493Z</time>
      </trkpt>
      <trkpt lat="51.554290" lon="6.995927">
        <ele>81.740439</ele>
        <time>2020-04-08T10:37:36.494Z</time>
      </trkpt>
      <trkpt lat="51.554173" lon="6.996147">
        <ele>81.611487</ele>
        <time>2020-04-08T10:37:40.496Z</time>
      </trkpt>
      <trkpt lat="51.554153" lon="6.996360">
        <ele>81.515534</ele>
        <time>2020-04-08T10:37:43.498Z</time>
      </trkpt>
      <trkpt lat="51.554085" lon="6.996540">
        <ele>81.421717</ele>
        <time>2020-04-08T10:37:46.497Z</time>
      </trkpt>
      <trkpt lat="51.554188" lon="6.996571">
        <ele>81.346648</ele>
        <time>2020-04-08T10:37:53.497Z</time>
      </trkpt>
      <trkpt lat="51.554020" lon="6.996736">
        <ele>81.205627</ele>
        <time>2020-04-08T10:37:55.498Z</time>
      </trkpt>
      <trkpt lat="51.554180" lon="6.996431">
        <ele>81.275809</ele>
        <time>2020-04-08T10:37:56.505Z</time>
      </trkpt>
      <trkpt lat="51.554270" lon="6.996406">
        <ele>81.303547</ele>
        <time>2020-04-08T10:38:01.502Z</time>
      </trkpt>
      <trkpt lat="51.554340" lon="6.996503">
        <ele>81.331609</ele>
        <time>2020-04-08T10:38:07.499Z</time>
      </trkpt>
      <trkpt lat="51.554400" lon="6.996628">
        <ele>81.361429</ele>
        <time>2020-04-08T10:38:15.501Z</time>
      </trkpt>
      <trkpt lat="51.554512" lon="6.996684">
        <ele>81.397049</ele>
        <time>2020-04-08T10:38:24.495Z</time>
      </trkpt>
      <trkpt lat="51.554540" lon="6.996821">
        <ele>81.424281</ele>
        <time>2020-04-08T10:38:30.499Z</time>
      </trkpt>
      <trkpt lat="51.554590" lon="6.996956">
        <ele>81.453953</ele>
        <time>2020-04-08T10:38:37.557Z</time>
      </trkpt>
      <trkpt lat="51.554638" lon="6.997095">
        <ele>81.483977</ele>
        <time>2020-04-08T10:38:45.505Z</time>
      </trkpt>
      <trkpt lat="51.554703" lon="6.997227">
        <ele>81.515773</ele>
        <time>2020-04-08T10:38:54.503Z</time>
      </trkpt>
      <trkpt lat="51.554783" lon="6.997325">
        <ele>81.546315</ele>
        <time>2020-04-08T10:39:03.498Z</time>
      </trkpt>
      <trkpt lat="51.554802" lon="6.997471">
        <ele>81.574481</ele>
        <time>2020-04-08T10:39:11.501Z</time>
      </trkpt>
      <trkpt lat="51.554770" lon="6.997625">
        <ele>81.605142</ele>
        <time>2020-04-08T10:39:14.493Z</time>
      </trkpt>
      <trkpt lat="51.554726" lon="6.997809">
        <ele>81.642369</ele>
        <time>2020-04-08T10:39:19.495Z</time>
      </trkpt>
      <trkpt lat="51.554836" lon="6.997807">
        <ele>81.675778</ele>
        <time>2020-04-08T10:39:25.499Z</time>
      </trkpt>
      <trkpt lat="51.554930" lon="6.997855">
        <ele>81.705730</ele>
        <time>2020-04-08T10:39:30.500Z</time>
      </trkpt>
      <trkpt lat="51.555010" lon="6.997967">
        <ele>81.737942</ele>
        <time>2020-04-08T10:39:35.499Z</time>
      </trkpt>
      <trkpt lat="51.555103" lon="6.997984">
        <ele>81.748246</ele>
        <time>2020-04-08T10:39:42.480Z</time>
      </trkpt>
      <trkpt lat="51.555202" lon="6.998093">
        <ele>81.748246</ele>
        <time>2020-04-08T10:39:48.495Z</time>
      </trkpt>
      <trkpt lat="51.555283" lon="6.998021">
        <ele>81.748246</ele>
        <time>2020-04-08T10:39:56.494Z</time>
      </trkpt>
      <trkpt lat="51.555370" lon="6.997990">
        <ele>81.748246</ele>
        <time>2020-04-08T10:40:05.499Z</time>
      </trkpt>
      <trkpt lat="51.555460" lon="6.997919">
        <ele>81.748246</ele>
        <time>2020-04-08T10:40:11.500Z</time>
      </trkpt>
      <trkpt lat="51.555557" lon="6.997912">
        <ele>81.748246</ele>
        <time>2020-04-08T10:40:18.502Z</time>
      </trkpt>
      <trkpt lat="51.555650" lon="6.997870">
        <ele>81.748246</ele>
        <time>2020-04-08T10:40:25.501Z</time>
      </trkpt>
      <trkpt lat="51.555730" lon="6.997996">
        <ele>81.748246</ele>
        <time>2020-04-08T10:40:33.504Z</time>
      </trkpt>
      <trkpt lat="51.555780" lon="6.998118">
        <ele>81.748246</ele>
        <time>2020-04-08T10:40:44.488Z</time>
      </trkpt>
      <trkpt lat="51.555798" lon="6.998264">
        <ele>81.748246</ele>
        <time>2020-04-08T10:40:53.498Z</time>
      </trkpt>
      <trkpt lat="51.555782" lon="6.998413">
        <ele>81.748246</ele>
        <time>2020-04-08T10:40:59.552Z</time>
      </trkpt>
      <trkpt lat="51.555690" lon="6.998487">
        <ele>81.748246</ele>
        <time>2020-04-08T10:41:14.521Z</time>
      </trkpt>
    </trkseg>
  </trk>
</gpx>